<?xml version="1.0" encoding="UTF-8"?>
<gpx version="1.1" creator="2bulu-scraper" xmlns="http://www.topografix.com/GPX/1/1">
  <metadata><name>宜宾江安县漏窗子（漏仓子）</name><desc>source: 2bulu.com trackId=80436714; exported 2026-08-30T14:29:56.753Z</desc></metadata>
  <wpt lat="28.5065311" lon="105.1395085"><ele>602</ele><name>
        </name></wpt>
  <wpt lat="28.5065311" lon="105.1395085"><ele>603</ele><name>
        </name></wpt>
  <wpt lat="28.5100215" lon="105.1368306"><ele>625</ele><name>
        </name></wpt>
  <wpt lat="28.5100937" lon="105.1368046"><ele>623</ele><name>
        </name></wpt>
  <wpt lat="28.510093" lon="105.1366108"><ele>623</ele><name>
        </name></wpt>
  <wpt lat="28.5135253" lon="105.1349952"><ele>634</ele><name>
        </name></wpt>
  <wpt lat="28.5151398" lon="105.1353287"><ele>640</ele><name>
        </name></wpt>
  <wpt lat="28.515604" lon="105.1353306"><ele>620</ele><name>
        </name></wpt>
  <wpt lat="28.5156959" lon="105.1356505"><ele>599</ele><name>
        </name></wpt>
  <wpt lat="28.5156398" lon="105.1355985"><ele>597</ele><name>
        </name></wpt>
  <wpt lat="28.5155071" lon="105.1357613"><ele>600</ele><name>
        </name></wpt>
  <wpt lat="28.5158104" lon="105.1360263"><ele>601</ele><name>
        </name></wpt>
  <wpt lat="28.5161552" lon="105.1365128"><ele>636</ele><name>
        </name></wpt>
  <wpt lat="28.5164452" lon="105.1367373"><ele>617</ele><name>
        </name></wpt>
  <wpt lat="28.5165363" lon="105.1367619"><ele>621</ele><name>
        </name></wpt>
  <wpt lat="28.5165363" lon="105.1367619"><ele>621</ele><name>
        </name></wpt>
  <wpt lat="28.5197344" lon="105.1355178"><ele>615</ele><name>
        </name></wpt>
  <wpt lat="28.5196285" lon="105.1382828"><ele>636</ele><name>
        </name></wpt>
  <wpt lat="28.5147477" lon="105.144077"><ele>435</ele><name>
        </name></wpt>
  <wpt lat="28.5145698" lon="105.1440203"><ele>430</ele><name>
        </name></wpt>
  <trk><name>宜宾江安县漏窗子（漏仓子）</name>
      <trkseg>
        <trkpt lat="28.501921" lon="105.143403"><ele>487.64</ele><time>2026-03-14T19:29:02.000Z</time></trkpt>
        <trkpt lat="28.5019146" lon="105.1434153"><ele>487.64</ele><time>2026-03-14T19:29:05.000Z</time></trkpt>
        <trkpt lat="28.5019757" lon="105.1433779"><ele>480.42</ele><time>2026-03-14T19:29:33.000Z</time></trkpt>
        <trkpt lat="28.5020716" lon="105.1433601"><ele>483.47</ele><time>2026-03-14T19:29:39.000Z</time></trkpt>
        <trkpt lat="28.5021679" lon="105.1433246"><ele>484.97</ele><time>2026-03-14T19:29:51.000Z</time></trkpt>
        <trkpt lat="28.5022557" lon="105.1433778"><ele>485.61</ele><time>2026-03-14T19:30:01.000Z</time></trkpt>
        <trkpt lat="28.5023591" lon="105.1434001"><ele>484.72</ele><time>2026-03-14T19:30:13.000Z</time></trkpt>
        <trkpt lat="28.5024352" lon="105.1433517"><ele>484.63</ele><time>2026-03-14T19:30:21.000Z</time></trkpt>
        <trkpt lat="28.502521" lon="105.1432879"><ele>485.65</ele><time>2026-03-14T19:30:37.000Z</time></trkpt>
        <trkpt lat="28.5025804" lon="105.14334"><ele>488.98</ele><time>2026-03-14T19:30:47.000Z</time></trkpt>
        <trkpt lat="28.5025381" lon="105.1434214"><ele>491.45</ele><time>2026-03-14T19:31:07.000Z</time></trkpt>
        <trkpt lat="28.5024464" lon="105.1434863"><ele>495.17</ele><time>2026-03-14T19:31:15.000Z</time></trkpt>
        <trkpt lat="28.5023482" lon="105.1435575"><ele>497.42</ele><time>2026-03-14T19:31:29.000Z</time></trkpt>
        <trkpt lat="28.502378" lon="105.1435327"><ele>497.74</ele><time>2026-03-14T19:31:43.000Z</time></trkpt>
        <trkpt lat="28.5024345" lon="105.1434429"><ele>496.76</ele><time>2026-03-14T19:31:51.000Z</time></trkpt>
        <trkpt lat="28.5025139" lon="105.1433573"><ele>495.18</ele><time>2026-03-14T19:32:01.000Z</time></trkpt>
        <trkpt lat="28.5025548" lon="105.1432511"><ele>494.68</ele><time>2026-03-14T19:32:17.000Z</time></trkpt>
        <trkpt lat="28.5025481" lon="105.1430929"><ele>496.29</ele><time>2026-03-14T19:32:27.000Z</time></trkpt>
        <trkpt lat="28.5025681" lon="105.1429729"><ele>499.17</ele><time>2026-03-14T19:32:35.000Z</time></trkpt>
        <trkpt lat="28.5026349" lon="105.1429106"><ele>502.05</ele><time>2026-03-14T19:32:45.000Z</time></trkpt>
        <trkpt lat="28.5027239" lon="105.1429257"><ele>503.49</ele><time>2026-03-14T19:32:53.000Z</time></trkpt>
        <trkpt lat="28.5028191" lon="105.1429405"><ele>503.25</ele><time>2026-03-14T19:33:01.000Z</time></trkpt>
        <trkpt lat="28.5029168" lon="105.1429508"><ele>502.7</ele><time>2026-03-14T19:33:17.000Z</time></trkpt>
        <trkpt lat="28.5030142" lon="105.1429393"><ele>502.32</ele><time>2026-03-14T19:33:31.000Z</time></trkpt>
        <trkpt lat="28.5030669" lon="105.1428487"><ele>502.21</ele><time>2026-03-14T19:33:41.000Z</time></trkpt>
        <trkpt lat="28.5030625" lon="105.1427329"><ele>503.22</ele><time>2026-03-14T19:33:49.000Z</time></trkpt>
        <trkpt lat="28.503042" lon="105.1426062"><ele>505.17</ele><time>2026-03-14T19:34:01.000Z</time></trkpt>
        <trkpt lat="28.5030034" lon="105.142484"><ele>508.95</ele><time>2026-03-14T19:34:09.000Z</time></trkpt>
        <trkpt lat="28.5029787" lon="105.1423693"><ele>511.66</ele><time>2026-03-14T19:34:23.000Z</time></trkpt>
        <trkpt lat="28.5028788" lon="105.142339"><ele>513.97</ele><time>2026-03-14T19:34:33.000Z</time></trkpt>
        <trkpt lat="28.5027733" lon="105.142296"><ele>513.09</ele><time>2026-03-14T19:34:47.000Z</time></trkpt>
        <trkpt lat="28.5026855" lon="105.1422397"><ele>512.23</ele><time>2026-03-14T19:34:55.000Z</time></trkpt>
        <trkpt lat="28.5027013" lon="105.1421568"><ele>512.35</ele><time>2026-03-14T19:35:01.000Z</time></trkpt>
        <trkpt lat="28.5027769" lon="105.1420628"><ele>514.08</ele><time>2026-03-14T19:35:09.000Z</time></trkpt>
        <trkpt lat="28.5028756" lon="105.1420179"><ele>515.79</ele><time>2026-03-14T19:35:15.000Z</time></trkpt>
        <trkpt lat="28.5029822" lon="105.1419998"><ele>516.92</ele><time>2026-03-14T19:35:25.000Z</time></trkpt>
        <trkpt lat="28.5030846" lon="105.1419524"><ele>516.77</ele><time>2026-03-14T19:35:33.000Z</time></trkpt>
        <trkpt lat="28.5031833" lon="105.141904"><ele>515.7</ele><time>2026-03-14T19:35:47.000Z</time></trkpt>
        <trkpt lat="28.5032709" lon="105.14186"><ele>514.98</ele><time>2026-03-14T19:35:59.000Z</time></trkpt>
        <trkpt lat="28.5033186" lon="105.1417751"><ele>515.97</ele><time>2026-03-14T19:36:07.000Z</time></trkpt>
        <trkpt lat="28.5033876" lon="105.1417179"><ele>518.22</ele><time>2026-03-14T19:36:15.000Z</time></trkpt>
        <trkpt lat="28.5034697" lon="105.1417341"><ele>520.82</ele><time>2026-03-14T19:36:23.000Z</time></trkpt>
        <trkpt lat="28.5035606" lon="105.1417227"><ele>522.72</ele><time>2026-03-14T19:36:31.000Z</time></trkpt>
        <trkpt lat="28.5036272" lon="105.1417911"><ele>524.91</ele><time>2026-03-14T19:36:39.000Z</time></trkpt>
        <trkpt lat="28.5036727" lon="105.1418952"><ele>525.56</ele><time>2026-03-14T19:36:49.000Z</time></trkpt>
        <trkpt lat="28.5036689" lon="105.1420068"><ele>526.54</ele><time>2026-03-14T19:36:59.000Z</time></trkpt>
        <trkpt lat="28.5036024" lon="105.1420816"><ele>527.12</ele><time>2026-03-14T19:37:07.000Z</time></trkpt>
        <trkpt lat="28.5035153" lon="105.1421622"><ele>526.84</ele><time>2026-03-14T19:37:17.000Z</time></trkpt>
        <trkpt lat="28.5034222" lon="105.142215"><ele>527.03</ele><time>2026-03-14T19:37:27.000Z</time></trkpt>
        <trkpt lat="28.5033434" lon="105.1422803"><ele>526.11</ele><time>2026-03-14T19:37:35.000Z</time></trkpt>
        <trkpt lat="28.5032439" lon="105.1423071"><ele>524.33</ele><time>2026-03-14T19:37:45.000Z</time></trkpt>
        <trkpt lat="28.5032322" lon="105.1424001"><ele>524.99</ele><time>2026-03-14T19:37:53.000Z</time></trkpt>
        <trkpt lat="28.5032735" lon="105.142519"><ele>526.43</ele><time>2026-03-14T19:38:05.000Z</time></trkpt>
        <trkpt lat="28.5033559" lon="105.1425905"><ele>527.63</ele><time>2026-03-14T19:38:13.000Z</time></trkpt>
        <trkpt lat="28.5034617" lon="105.142642"><ele>528.92</ele><time>2026-03-14T19:38:25.000Z</time></trkpt>
        <trkpt lat="28.5035694" lon="105.1426365"><ele>530.02</ele><time>2026-03-14T19:38:31.000Z</time></trkpt>
        <trkpt lat="28.5036901" lon="105.1426252"><ele>530.79</ele><time>2026-03-14T19:38:43.000Z</time></trkpt>
        <trkpt lat="28.5037878" lon="105.142582"><ele>534.25</ele><time>2026-03-14T19:38:51.000Z</time></trkpt>
        <trkpt lat="28.5038563" lon="105.1426429"><ele>537.19</ele><time>2026-03-14T19:38:57.000Z</time></trkpt>
        <trkpt lat="28.5038929" lon="105.1427704"><ele>539.57</ele><time>2026-03-14T19:39:03.000Z</time></trkpt>
        <trkpt lat="28.5038629" lon="105.1428931"><ele>540.72</ele><time>2026-03-14T19:39:21.000Z</time></trkpt>
        <trkpt lat="28.5038471" lon="105.1429765"><ele>542.14</ele><time>2026-03-14T19:39:35.000Z</time></trkpt>
        <trkpt lat="28.5037663" lon="105.1430141"><ele>545.15</ele><time>2026-03-14T19:39:57.000Z</time></trkpt>
        <trkpt lat="28.5037555" lon="105.1431256"><ele>549.07</ele><time>2026-03-14T19:40:11.000Z</time></trkpt>
        <trkpt lat="28.5037002" lon="105.1432236"><ele>550.06</ele><time>2026-03-14T19:40:19.000Z</time></trkpt>
        <trkpt lat="28.5036215" lon="105.1432906"><ele>549.67</ele><time>2026-03-14T19:40:27.000Z</time></trkpt>
        <trkpt lat="28.5035603" lon="105.1433811"><ele>549.78</ele><time>2026-03-14T19:40:37.000Z</time></trkpt>
        <trkpt lat="28.5035262" lon="105.1434925"><ele>550.99</ele><time>2026-03-14T19:40:49.000Z</time></trkpt>
        <trkpt lat="28.5035" lon="105.1436085"><ele>551.66</ele><time>2026-03-14T19:40:57.000Z</time></trkpt>
        <trkpt lat="28.503483" lon="105.1437177"><ele>551.92</ele><time>2026-03-14T19:41:13.000Z</time></trkpt>
        <trkpt lat="28.5035171" lon="105.1438226"><ele>551.23</ele><time>2026-03-14T19:41:21.000Z</time></trkpt>
        <trkpt lat="28.5035841" lon="105.1437974"><ele>550.96</ele><time>2026-03-14T19:41:35.000Z</time></trkpt>
        <trkpt lat="28.5036336" lon="105.1436884"><ele>551.7</ele><time>2026-03-14T19:41:47.000Z</time></trkpt>
        <trkpt lat="28.5036773" lon="105.1435577"><ele>554.46</ele><time>2026-03-14T19:41:55.000Z</time></trkpt>
        <trkpt lat="28.50371" lon="105.1434828"><ele>557.45</ele><time>2026-03-14T19:42:03.000Z</time></trkpt>
        <trkpt lat="28.5037738" lon="105.1434218"><ele>558.78</ele><time>2026-03-14T19:42:19.000Z</time></trkpt>
        <trkpt lat="28.5038317" lon="105.1433433"><ele>559.27</ele><time>2026-03-14T19:42:31.000Z</time></trkpt>
        <trkpt lat="28.503873" lon="105.1432517"><ele>561.03</ele><time>2026-03-14T19:42:41.000Z</time></trkpt>
        <trkpt lat="28.5039" lon="105.1431432"><ele>562.84</ele><time>2026-03-14T19:42:53.000Z</time></trkpt>
        <trkpt lat="28.5039693" lon="105.1430583"><ele>565.15</ele><time>2026-03-14T19:43:03.000Z</time></trkpt>
        <trkpt lat="28.5040601" lon="105.1430281"><ele>566.71</ele><time>2026-03-14T19:43:15.000Z</time></trkpt>
        <trkpt lat="28.5041318" lon="105.1429675"><ele>566.66</ele><time>2026-03-14T19:43:27.000Z</time></trkpt>
        <trkpt lat="28.5041876" lon="105.1428615"><ele>567.27</ele><time>2026-03-14T19:43:37.000Z</time></trkpt>
        <trkpt lat="28.5042375" lon="105.1427586"><ele>569.63</ele><time>2026-03-14T19:43:51.000Z</time></trkpt>
        <trkpt lat="28.5042974" lon="105.1426657"><ele>572.71</ele><time>2026-03-14T19:44:05.000Z</time></trkpt>
        <trkpt lat="28.504355" lon="105.1425719"><ele>574.22</ele><time>2026-03-14T19:44:33.000Z</time></trkpt>
        <trkpt lat="28.504382" lon="105.1424562"><ele>573.83</ele><time>2026-03-14T19:44:49.000Z</time></trkpt>
        <trkpt lat="28.5044442" lon="105.1424623"><ele>572.93</ele><time>2026-03-14T19:45:01.000Z</time></trkpt>
        <trkpt lat="28.5045132" lon="105.1424263"><ele>574.02</ele><time>2026-03-14T19:45:13.000Z</time></trkpt>
        <trkpt lat="28.5045302" lon="105.1423413"><ele>574.47</ele><time>2026-03-14T19:45:27.000Z</time></trkpt>
        <trkpt lat="28.504564" lon="105.1422375"><ele>573.41</ele><time>2026-03-14T19:45:41.000Z</time></trkpt>
        <trkpt lat="28.5045867" lon="105.1421138"><ele>573.53</ele><time>2026-03-14T19:45:57.000Z</time></trkpt>
        <trkpt lat="28.5046228" lon="105.1420072"><ele>574.54</ele><time>2026-03-14T19:46:07.000Z</time></trkpt>
        <trkpt lat="28.504667" lon="105.1419061"><ele>575.1</ele><time>2026-03-14T19:46:17.000Z</time></trkpt>
        <trkpt lat="28.5047151" lon="105.1418135"><ele>576.18</ele><time>2026-03-14T19:46:29.000Z</time></trkpt>
        <trkpt lat="28.5047848" lon="105.1417395"><ele>578.54</ele><time>2026-03-14T19:46:43.000Z</time></trkpt>
        <trkpt lat="28.5047986" lon="105.1416408"><ele>580.07</ele><time>2026-03-14T19:46:51.000Z</time></trkpt>
        <trkpt lat="28.5048486" lon="105.1415594"><ele>579.74</ele><time>2026-03-14T19:47:01.000Z</time></trkpt>
        <trkpt lat="28.5048886" lon="105.141458"><ele>580.59</ele><time>2026-03-14T19:47:09.000Z</time></trkpt>
        <trkpt lat="28.5049418" lon="105.1413609"><ele>581.55</ele><time>2026-03-14T19:47:19.000Z</time></trkpt>
        <trkpt lat="28.5049942" lon="105.1412632"><ele>580.06</ele><time>2026-03-14T19:47:27.000Z</time></trkpt>
        <trkpt lat="28.505041" lon="105.1411672"><ele>580.25</ele><time>2026-03-14T19:47:35.000Z</time></trkpt>
        <trkpt lat="28.5050753" lon="105.1410709"><ele>581.36</ele><time>2026-03-14T19:47:43.000Z</time></trkpt>
        <trkpt lat="28.5050801" lon="105.1409638"><ele>583.82</ele><time>2026-03-14T19:47:49.000Z</time></trkpt>
        <trkpt lat="28.5050838" lon="105.1408461"><ele>586.43</ele><time>2026-03-14T19:47:59.000Z</time></trkpt>
        <trkpt lat="28.5051479" lon="105.140763"><ele>586</ele><time>2026-03-14T19:48:07.000Z</time></trkpt>
        <trkpt lat="28.5052162" lon="105.1406651"><ele>585.58</ele><time>2026-03-14T19:48:19.000Z</time></trkpt>
        <trkpt lat="28.5052967" lon="105.140572"><ele>585.53</ele><time>2026-03-14T19:48:31.000Z</time></trkpt>
        <trkpt lat="28.5053497" lon="105.1404704"><ele>584.6</ele><time>2026-03-14T19:48:39.000Z</time></trkpt>
        <trkpt lat="28.505417" lon="105.1403942"><ele>584.51</ele><time>2026-03-14T19:48:49.000Z</time></trkpt>
        <trkpt lat="28.5054792" lon="105.1403174"><ele>584.83</ele><time>2026-03-14T19:48:57.000Z</time></trkpt>
        <trkpt lat="28.5055638" lon="105.1402578"><ele>586.64</ele><time>2026-03-14T19:49:07.000Z</time></trkpt>
        <trkpt lat="28.5056404" lon="105.1401962"><ele>586.93</ele><time>2026-03-14T19:49:15.000Z</time></trkpt>
        <trkpt lat="28.5057007" lon="105.1401185"><ele>586.98</ele><time>2026-03-14T19:49:25.000Z</time></trkpt>
        <trkpt lat="28.5057623" lon="105.1400344"><ele>587.46</ele><time>2026-03-14T19:49:33.000Z</time></trkpt>
        <trkpt lat="28.5058411" lon="105.1399723"><ele>588.23</ele><time>2026-03-14T19:49:45.000Z</time></trkpt>
        <trkpt lat="28.50594" lon="105.1399297"><ele>589</ele><time>2026-03-14T19:50:01.000Z</time></trkpt>
        <trkpt lat="28.5060005" lon="105.1398496"><ele>592.36</ele><time>2026-03-14T19:50:09.000Z</time></trkpt>
        <trkpt lat="28.5060688" lon="105.1397676"><ele>593.86</ele><time>2026-03-14T19:50:21.000Z</time></trkpt>
        <trkpt lat="28.5061407" lon="105.1396843"><ele>593.96</ele><time>2026-03-14T19:50:31.000Z</time></trkpt>
        <trkpt lat="28.5062019" lon="105.139596"><ele>595.81</ele><time>2026-03-14T19:50:41.000Z</time></trkpt>
        <trkpt lat="28.5062825" lon="105.1395555"><ele>598.09</ele><time>2026-03-14T19:50:51.000Z</time></trkpt>
        <trkpt lat="28.5063293" lon="105.1394699"><ele>600.65</ele><time>2026-03-14T19:51:05.000Z</time></trkpt>
        <trkpt lat="28.5064053" lon="105.1394497"><ele>602.43</ele><time>2026-03-14T19:51:13.000Z</time></trkpt>
        <trkpt lat="28.5064522" lon="105.1394736"><ele>602.91</ele><time>2026-03-14T19:51:23.000Z</time></trkpt>
        <trkpt lat="28.5065311" lon="105.1395085"><ele>603.18</ele><time>2026-03-14T19:52:05.000Z</time></trkpt>
        <trkpt lat="28.5065853" lon="105.1395968"><ele>603.06</ele><time>2026-03-14T19:52:15.000Z</time></trkpt>
        <trkpt lat="28.5066326" lon="105.1397059"><ele>602.75</ele><time>2026-03-14T19:52:33.000Z</time></trkpt>
        <trkpt lat="28.506708" lon="105.1397"><ele>604.38</ele><time>2026-03-14T19:52:49.000Z</time></trkpt>
        <trkpt lat="28.5068012" lon="105.1396536"><ele>607.72</ele><time>2026-03-14T19:53:03.000Z</time></trkpt>
        <trkpt lat="28.5068843" lon="105.1395865"><ele>612.79</ele><time>2026-03-14T19:53:31.000Z</time></trkpt>
        <trkpt lat="28.506944" lon="105.1394965"><ele>617.08</ele><time>2026-03-14T19:53:47.000Z</time></trkpt>
        <trkpt lat="28.5070273" lon="105.1394488"><ele>621.55</ele><time>2026-03-14T19:54:01.000Z</time></trkpt>
        <trkpt lat="28.5071185" lon="105.1394058"><ele>623.59</ele><time>2026-03-14T19:54:23.000Z</time></trkpt>
        <trkpt lat="28.507202" lon="105.1394579"><ele>624.62</ele><time>2026-03-14T19:54:43.000Z</time></trkpt>
        <trkpt lat="28.5072635" lon="105.1395467"><ele>624.24</ele><time>2026-03-14T19:54:55.000Z</time></trkpt>
        <trkpt lat="28.5073327" lon="105.1395305"><ele>623.96</ele><time>2026-03-14T19:55:05.000Z</time></trkpt>
        <trkpt lat="28.5074194" lon="105.1395373"><ele>624.09</ele><time>2026-03-14T19:55:19.000Z</time></trkpt>
        <trkpt lat="28.5075147" lon="105.1395356"><ele>624.69</ele><time>2026-03-14T19:55:37.000Z</time></trkpt>
        <trkpt lat="28.5076049" lon="105.1395112"><ele>626.89</ele><time>2026-03-14T19:55:51.000Z</time></trkpt>
        <trkpt lat="28.5076934" lon="105.1394731"><ele>629.97</ele><time>2026-03-14T19:56:03.000Z</time></trkpt>
        <trkpt lat="28.507786" lon="105.1394923"><ele>631.8</ele><time>2026-03-14T19:56:13.000Z</time></trkpt>
        <trkpt lat="28.5078859" lon="105.1395206"><ele>633.09</ele><time>2026-03-14T19:56:25.000Z</time></trkpt>
        <trkpt lat="28.5079188" lon="105.1394305"><ele>633.22</ele><time>2026-03-14T19:57:37.000Z</time></trkpt>
        <trkpt lat="28.5079864" lon="105.1393604"><ele>638.87</ele><time>2026-03-14T19:57:45.000Z</time></trkpt>
        <trkpt lat="28.5080766" lon="105.1393239"><ele>641.76</ele><time>2026-03-14T19:57:55.000Z</time></trkpt>
        <trkpt lat="28.5081209" lon="105.1392332"><ele>642.39</ele><time>2026-03-14T19:58:09.000Z</time></trkpt>
        <trkpt lat="28.5081614" lon="105.1391984"><ele>642.43</ele><time>2026-03-14T19:58:13.000Z</time></trkpt>
        <trkpt lat="28.5081888" lon="105.1392685"><ele>642.07</ele><time>2026-03-14T19:58:43.000Z</time></trkpt>
        <trkpt lat="28.5081883" lon="105.1392851"><ele>639.16</ele><time>2026-03-14T19:58:45.000Z</time></trkpt>
        <trkpt lat="28.5082577" lon="105.1392478"><ele>637.45</ele><time>2026-03-14T19:59:05.000Z</time></trkpt>
        <trkpt lat="28.5083041" lon="105.1391936"><ele>634.06</ele><time>2026-03-14T19:59:11.000Z</time></trkpt>
        <trkpt lat="28.5083681" lon="105.1391034"><ele>632.8</ele><time>2026-03-14T19:59:41.000Z</time></trkpt>
        <trkpt lat="28.5084587" lon="105.1390416"><ele>631.11</ele><time>2026-03-14T19:59:51.000Z</time></trkpt>
        <trkpt lat="28.5085655" lon="105.1390473"><ele>629.12</ele><time>2026-03-14T19:59:59.000Z</time></trkpt>
        <trkpt lat="28.5086189" lon="105.1390071"><ele>627.49</ele><time>2026-03-14T20:00:17.000Z</time></trkpt>
        <trkpt lat="28.5085617" lon="105.1389557"><ele>624.93</ele><time>2026-03-14T20:00:33.000Z</time></trkpt>
        <trkpt lat="28.508572" lon="105.1388676"><ele>624.34</ele><time>2026-03-14T20:00:39.000Z</time></trkpt>
        <trkpt lat="28.5086313" lon="105.1387839"><ele>624.65</ele><time>2026-03-14T20:00:45.000Z</time></trkpt>
        <trkpt lat="28.5086671" lon="105.1386694"><ele>625.66</ele><time>2026-03-14T20:00:55.000Z</time></trkpt>
        <trkpt lat="28.5087294" lon="105.1385645"><ele>625.69</ele><time>2026-03-14T20:01:03.000Z</time></trkpt>
        <trkpt lat="28.5088265" lon="105.1385036"><ele>624.88</ele><time>2026-03-14T20:01:13.000Z</time></trkpt>
        <trkpt lat="28.508881" lon="105.1384894"><ele>623.1</ele><time>2026-03-14T20:01:19.000Z</time></trkpt>
        <trkpt lat="28.50895" lon="105.1384214"><ele>623.01</ele><time>2026-03-14T20:01:39.000Z</time></trkpt>
        <trkpt lat="28.5090301" lon="105.1383484"><ele>623.57</ele><time>2026-03-14T20:01:49.000Z</time></trkpt>
        <trkpt lat="28.5090641" lon="105.1382415"><ele>623.11</ele><time>2026-03-14T20:02:01.000Z</time></trkpt>
        <trkpt lat="28.5090851" lon="105.1381254"><ele>621.75</ele><time>2026-03-14T20:02:11.000Z</time></trkpt>
        <trkpt lat="28.5091209" lon="105.1380209"><ele>622.42</ele><time>2026-03-14T20:02:21.000Z</time></trkpt>
        <trkpt lat="28.5091871" lon="105.137944"><ele>623.57</ele><time>2026-03-14T20:02:29.000Z</time></trkpt>
        <trkpt lat="28.5092536" lon="105.1378566"><ele>623.92</ele><time>2026-03-14T20:02:39.000Z</time></trkpt>
        <trkpt lat="28.5093509" lon="105.1378249"><ele>624.92</ele><time>2026-03-14T20:02:49.000Z</time></trkpt>
        <trkpt lat="28.5094512" lon="105.1378193"><ele>624.62</ele><time>2026-03-14T20:02:57.000Z</time></trkpt>
        <trkpt lat="28.5094456" lon="105.1377209"><ele>623.05</ele><time>2026-03-14T20:05:41.000Z</time></trkpt>
        <trkpt lat="28.5094568" lon="105.1376128"><ele>622.5</ele><time>2026-03-14T20:05:57.000Z</time></trkpt>
        <trkpt lat="28.5094692" lon="105.1375092"><ele>624.78</ele><time>2026-03-14T20:06:05.000Z</time></trkpt>
        <trkpt lat="28.50942" lon="105.1374324"><ele>628.72</ele><time>2026-03-14T20:06:11.000Z</time></trkpt>
        <trkpt lat="28.509419" lon="105.1373392"><ele>631.8</ele><time>2026-03-14T20:06:31.000Z</time></trkpt>
        <trkpt lat="28.5094602" lon="105.1372348"><ele>632.68</ele><time>2026-03-14T20:06:43.000Z</time></trkpt>
        <trkpt lat="28.5094692" lon="105.1371203"><ele>634.8</ele><time>2026-03-14T20:06:55.000Z</time></trkpt>
        <trkpt lat="28.5095271" lon="105.1370276"><ele>634.88</ele><time>2026-03-14T20:07:05.000Z</time></trkpt>
        <trkpt lat="28.5096082" lon="105.1369543"><ele>633.08</ele><time>2026-03-14T20:07:15.000Z</time></trkpt>
        <trkpt lat="28.5097028" lon="105.1368937"><ele>631.69</ele><time>2026-03-14T20:07:25.000Z</time></trkpt>
        <trkpt lat="28.5097822" lon="105.1368248"><ele>630.29</ele><time>2026-03-14T20:07:35.000Z</time></trkpt>
        <trkpt lat="28.5098854" lon="105.1368194"><ele>630.22</ele><time>2026-03-14T20:07:45.000Z</time></trkpt>
        <trkpt lat="28.5099884" lon="105.1368298"><ele>628.05</ele><time>2026-03-14T20:07:55.000Z</time></trkpt>
        <trkpt lat="28.5100215" lon="105.1368306"><ele>624.52</ele><time>2026-03-14T20:07:59.000Z</time></trkpt>
        <trkpt lat="28.5100937" lon="105.1368046"><ele>622.58</ele><time>2026-03-14T20:09:27.000Z</time></trkpt>
        <trkpt lat="28.5101344" lon="105.1367094"><ele>620.97</ele><time>2026-03-14T20:11:45.000Z</time></trkpt>
        <trkpt lat="28.510093" lon="105.1366108"><ele>622.53</ele><time>2026-03-14T20:13:05.000Z</time></trkpt>
        <trkpt lat="28.510101" lon="105.1366017"><ele>622.63</ele><time>2026-03-14T20:13:13.000Z</time></trkpt>
        <trkpt lat="28.5100647" lon="105.1365237"><ele>621.52</ele><time>2026-03-14T20:13:49.000Z</time></trkpt>
        <trkpt lat="28.5100362" lon="105.1364858"><ele>622.27</ele><time>2026-03-14T20:14:01.000Z</time></trkpt>
        <trkpt lat="28.5100831" lon="105.1364195"><ele>622.97</ele><time>2026-03-14T20:14:47.000Z</time></trkpt>
        <trkpt lat="28.5101718" lon="105.1363846"><ele>623.1</ele><time>2026-03-14T20:15:07.000Z</time></trkpt>
        <trkpt lat="28.5102138" lon="105.1362979"><ele>625.88</ele><time>2026-03-14T20:15:17.000Z</time></trkpt>
        <trkpt lat="28.5102231" lon="105.1361946"><ele>629.24</ele><time>2026-03-14T20:15:25.000Z</time></trkpt>
        <trkpt lat="28.510203" lon="105.136081"><ele>631.86</ele><time>2026-03-14T20:15:37.000Z</time></trkpt>
        <trkpt lat="28.5101626" lon="105.1359767"><ele>633.64</ele><time>2026-03-14T20:15:51.000Z</time></trkpt>
        <trkpt lat="28.5101725" lon="105.135851"><ele>634.86</ele><time>2026-03-14T20:15:59.000Z</time></trkpt>
        <trkpt lat="28.510186" lon="105.1357114"><ele>634.98</ele><time>2026-03-14T20:16:05.000Z</time></trkpt>
        <trkpt lat="28.5102006" lon="105.1355752"><ele>633.92</ele><time>2026-03-14T20:16:11.000Z</time></trkpt>
        <trkpt lat="28.5101885" lon="105.1354534"><ele>632.04</ele><time>2026-03-14T20:16:17.000Z</time></trkpt>
        <trkpt lat="28.5101653" lon="105.1353776"><ele>631.34</ele><time>2026-03-14T20:16:25.000Z</time></trkpt>
        <trkpt lat="28.510161" lon="105.1352841"><ele>631.2</ele><time>2026-03-14T20:16:55.000Z</time></trkpt>
        <trkpt lat="28.510195" lon="105.1351854"><ele>628.99</ele><time>2026-03-14T20:17:07.000Z</time></trkpt>
        <trkpt lat="28.5102091" lon="105.1351623"><ele>626.28</ele><time>2026-03-14T20:17:09.000Z</time></trkpt>
        <trkpt lat="28.5102312" lon="105.1352746"><ele>624.93</ele><time>2026-03-14T20:17:29.000Z</time></trkpt>
        <trkpt lat="28.5102325" lon="105.1353999"><ele>620.87</ele><time>2026-03-14T20:17:35.000Z</time></trkpt>
        <trkpt lat="28.5102194" lon="105.1354801"><ele>618.17</ele><time>2026-03-14T20:17:41.000Z</time></trkpt>
        <trkpt lat="28.5102234" lon="105.1354241"><ele>615.69</ele><time>2026-03-14T20:18:11.000Z</time></trkpt>
        <trkpt lat="28.5102149" lon="105.1353121"><ele>614.94</ele><time>2026-03-14T20:19:01.000Z</time></trkpt>
        <trkpt lat="28.5102723" lon="105.1353464"><ele>614.07</ele><time>2026-03-14T20:20:05.000Z</time></trkpt>
        <trkpt lat="28.5102317" lon="105.1354478"><ele>610.89</ele><time>2026-03-14T20:20:27.000Z</time></trkpt>
        <trkpt lat="28.5102664" lon="105.1355399"><ele>610.7</ele><time>2026-03-14T20:20:43.000Z</time></trkpt>
        <trkpt lat="28.5103098" lon="105.1356351"><ele>611.24</ele><time>2026-03-14T20:20:55.000Z</time></trkpt>
        <trkpt lat="28.5103588" lon="105.1357411"><ele>612.38</ele><time>2026-03-14T20:21:13.000Z</time></trkpt>
        <trkpt lat="28.5104126" lon="105.1358433"><ele>612.55</ele><time>2026-03-14T20:21:23.000Z</time></trkpt>
        <trkpt lat="28.5104546" lon="105.1359516"><ele>613.13</ele><time>2026-03-14T20:21:37.000Z</time></trkpt>
        <trkpt lat="28.5105" lon="105.1360508"><ele>614.86</ele><time>2026-03-14T20:21:45.000Z</time></trkpt>
        <trkpt lat="28.5105704" lon="105.136138"><ele>614.75</ele><time>2026-03-14T20:21:55.000Z</time></trkpt>
        <trkpt lat="28.5105834" lon="105.1360803"><ele>614.36</ele><time>2026-03-14T20:22:03.000Z</time></trkpt>
        <trkpt lat="28.5106478" lon="105.1360218"><ele>616.44</ele><time>2026-03-14T20:22:15.000Z</time></trkpt>
        <trkpt lat="28.5107389" lon="105.1360218"><ele>619.24</ele><time>2026-03-14T20:22:31.000Z</time></trkpt>
        <trkpt lat="28.5108474" lon="105.1360375"><ele>617.85</ele><time>2026-03-14T20:22:43.000Z</time></trkpt>
        <trkpt lat="28.510957" lon="105.1360373"><ele>615.93</ele><time>2026-03-14T20:22:55.000Z</time></trkpt>
        <trkpt lat="28.5110539" lon="105.1360562"><ele>614.61</ele><time>2026-03-14T20:23:25.000Z</time></trkpt>
        <trkpt lat="28.5111433" lon="105.1360394"><ele>612.28</ele><time>2026-03-14T20:23:35.000Z</time></trkpt>
        <trkpt lat="28.5112388" lon="105.1359974"><ele>613.8</ele><time>2026-03-14T20:23:47.000Z</time></trkpt>
        <trkpt lat="28.5113351" lon="105.1359579"><ele>615.45</ele><time>2026-03-14T20:23:57.000Z</time></trkpt>
        <trkpt lat="28.5114354" lon="105.1359194"><ele>619.28</ele><time>2026-03-14T20:24:07.000Z</time></trkpt>
        <trkpt lat="28.5115302" lon="105.135856"><ele>622.06</ele><time>2026-03-14T20:24:17.000Z</time></trkpt>
        <trkpt lat="28.5116389" lon="105.1358271"><ele>624.05</ele><time>2026-03-14T20:24:27.000Z</time></trkpt>
        <trkpt lat="28.5117348" lon="105.1358115"><ele>626.21</ele><time>2026-03-14T20:24:35.000Z</time></trkpt>
        <trkpt lat="28.5118298" lon="105.1357948"><ele>627.29</ele><time>2026-03-14T20:24:43.000Z</time></trkpt>
        <trkpt lat="28.5119267" lon="105.1357804"><ele>628</ele><time>2026-03-14T20:24:51.000Z</time></trkpt>
        <trkpt lat="28.512018" lon="105.1357665"><ele>628.7</ele><time>2026-03-14T20:24:59.000Z</time></trkpt>
        <trkpt lat="28.5121087" lon="105.1357384"><ele>630.16</ele><time>2026-03-14T20:25:07.000Z</time></trkpt>
        <trkpt lat="28.5122007" lon="105.135674"><ele>631.4</ele><time>2026-03-14T20:25:17.000Z</time></trkpt>
        <trkpt lat="28.5122682" lon="105.1355947"><ele>631.73</ele><time>2026-03-14T20:25:25.000Z</time></trkpt>
        <trkpt lat="28.5123572" lon="105.1355315"><ele>631.73</ele><time>2026-03-14T20:25:37.000Z</time></trkpt>
        <trkpt lat="28.5124388" lon="105.1354632"><ele>631.46</ele><time>2026-03-14T20:25:47.000Z</time></trkpt>
        <trkpt lat="28.5124994" lon="105.1353718"><ele>632</ele><time>2026-03-14T20:25:57.000Z</time></trkpt>
        <trkpt lat="28.5125703" lon="105.1353005"><ele>632.56</ele><time>2026-03-14T20:26:21.000Z</time></trkpt>
        <trkpt lat="28.5126398" lon="105.1352332"><ele>634.04</ele><time>2026-03-14T20:26:31.000Z</time></trkpt>
        <trkpt lat="28.5127544" lon="105.1351935"><ele>635.47</ele><time>2026-03-14T20:26:45.000Z</time></trkpt>
        <trkpt lat="28.5127791" lon="105.1351868"><ele>635.47</ele><time>2026-03-14T20:26:47.000Z</time></trkpt>
        <trkpt lat="28.5128391" lon="105.1351388"><ele>635.56</ele><time>2026-03-14T20:27:17.000Z</time></trkpt>
        <trkpt lat="28.5129165" lon="105.1350931"><ele>636.9</ele><time>2026-03-14T20:27:23.000Z</time></trkpt>
        <trkpt lat="28.5130161" lon="105.1350626"><ele>637.57</ele><time>2026-03-14T20:27:33.000Z</time></trkpt>
        <trkpt lat="28.5131128" lon="105.1350169"><ele>636.85</ele><time>2026-03-14T20:27:41.000Z</time></trkpt>
        <trkpt lat="28.5132121" lon="105.1349825"><ele>636.08</ele><time>2026-03-14T20:27:49.000Z</time></trkpt>
        <trkpt lat="28.5133151" lon="105.1349782"><ele>635.28</ele><time>2026-03-14T20:27:57.000Z</time></trkpt>
        <trkpt lat="28.5134233" lon="105.1349928"><ele>635.74</ele><time>2026-03-14T20:28:05.000Z</time></trkpt>
        <trkpt lat="28.5135253" lon="105.1349952"><ele>634.41</ele><time>2026-03-14T20:28:13.000Z</time></trkpt>
        <trkpt lat="28.5135701" lon="105.1349796"><ele>633.23</ele><time>2026-03-14T20:28:21.000Z</time></trkpt>
        <trkpt lat="28.5136159" lon="105.1349115"><ele>633.77</ele><time>2026-03-14T20:29:13.000Z</time></trkpt>
        <trkpt lat="28.5135926" lon="105.1350042"><ele>633.74</ele><time>2026-03-14T20:30:23.000Z</time></trkpt>
        <trkpt lat="28.5136879" lon="105.1350387"><ele>630.42</ele><time>2026-03-14T20:31:03.000Z</time></trkpt>
        <trkpt lat="28.5137955" lon="105.1350351"><ele>628.26</ele><time>2026-03-14T20:31:33.000Z</time></trkpt>
        <trkpt lat="28.5138664" lon="105.1350974"><ele>628.19</ele><time>2026-03-14T20:31:41.000Z</time></trkpt>
        <trkpt lat="28.5139528" lon="105.1351052"><ele>626.35</ele><time>2026-03-14T20:31:51.000Z</time></trkpt>
        <trkpt lat="28.5140459" lon="105.1351139"><ele>626.48</ele><time>2026-03-14T20:32:01.000Z</time></trkpt>
        <trkpt lat="28.5141324" lon="105.1350826"><ele>627.15</ele><time>2026-03-14T20:32:15.000Z</time></trkpt>
        <trkpt lat="28.514225" lon="105.1351209"><ele>630.27</ele><time>2026-03-14T20:32:25.000Z</time></trkpt>
        <trkpt lat="28.5143191" lon="105.1351742"><ele>630.42</ele><time>2026-03-14T20:32:33.000Z</time></trkpt>
        <trkpt lat="28.5144132" lon="105.1352271"><ele>630.12</ele><time>2026-03-14T20:32:41.000Z</time></trkpt>
        <trkpt lat="28.5145034" lon="105.135288"><ele>630.12</ele><time>2026-03-14T20:32:49.000Z</time></trkpt>
        <trkpt lat="28.5145927" lon="105.1353351"><ele>630.09</ele><time>2026-03-14T20:32:57.000Z</time></trkpt>
        <trkpt lat="28.5146231" lon="105.1353286"><ele>629.99</ele><time>2026-03-14T20:33:01.000Z</time></trkpt>
        <trkpt lat="28.5147525" lon="105.1353566"><ele>629.67</ele><time>2026-03-14T20:34:05.000Z</time></trkpt>
        <trkpt lat="28.514741" lon="105.1353529"><ele>633.64</ele><time>2026-03-14T20:34:07.000Z</time></trkpt>
        <trkpt lat="28.5147958" lon="105.1354217"><ele>635.59</ele><time>2026-03-14T20:34:25.000Z</time></trkpt>
        <trkpt lat="28.5148867" lon="105.1354841"><ele>637.27</ele><time>2026-03-14T20:34:31.000Z</time></trkpt>
        <trkpt lat="28.5150024" lon="105.1354866"><ele>637.52</ele><time>2026-03-14T20:34:39.000Z</time></trkpt>
        <trkpt lat="28.5151329" lon="105.1354735"><ele>639.07</ele><time>2026-03-14T20:34:47.000Z</time></trkpt>
        <trkpt lat="28.5152396" lon="105.1354962"><ele>641.61</ele><time>2026-03-14T20:34:53.000Z</time></trkpt>
        <trkpt lat="28.5153383" lon="105.1355445"><ele>642.83</ele><time>2026-03-14T20:35:01.000Z</time></trkpt>
        <trkpt lat="28.5154262" lon="105.1356105"><ele>641.66</ele><time>2026-03-14T20:35:09.000Z</time></trkpt>
        <trkpt lat="28.5155055" lon="105.1356719"><ele>640.3</ele><time>2026-03-14T20:35:19.000Z</time></trkpt>
        <trkpt lat="28.5154416" lon="105.1356487"><ele>638.83</ele><time>2026-03-14T20:35:35.000Z</time></trkpt>
        <trkpt lat="28.5154146" lon="105.1356419"><ele>637.65</ele><time>2026-03-14T20:35:37.000Z</time></trkpt>
        <trkpt lat="28.5153729" lon="105.1355456"><ele>636.88</ele><time>2026-03-14T20:36:07.000Z</time></trkpt>
        <trkpt lat="28.515293" lon="105.1354858"><ele>637.26</ele><time>2026-03-14T20:36:15.000Z</time></trkpt>
        <trkpt lat="28.5151963" lon="105.1354414"><ele>639.77</ele><time>2026-03-14T20:36:27.000Z</time></trkpt>
        <trkpt lat="28.5150824" lon="105.1354289"><ele>642.88</ele><time>2026-03-14T20:36:39.000Z</time></trkpt>
        <trkpt lat="28.5149806" lon="105.1354383"><ele>644.06</ele><time>2026-03-14T20:36:49.000Z</time></trkpt>
        <trkpt lat="28.5148769" lon="105.1354416"><ele>644.48</ele><time>2026-03-14T20:36:59.000Z</time></trkpt>
        <trkpt lat="28.5147802" lon="105.1354145"><ele>645.28</ele><time>2026-03-14T20:37:07.000Z</time></trkpt>
        <trkpt lat="28.5148242" lon="105.1353809"><ele>645.6</ele><time>2026-03-14T20:37:21.000Z</time></trkpt>
        <trkpt lat="28.5149315" lon="105.1353749"><ele>643.92</ele><time>2026-03-14T20:37:31.000Z</time></trkpt>
        <trkpt lat="28.5150428" lon="105.1353721"><ele>641.61</ele><time>2026-03-14T20:37:41.000Z</time></trkpt>
        <trkpt lat="28.5151398" lon="105.1353287"><ele>639.77</ele><time>2026-03-14T20:38:01.000Z</time></trkpt>
        <trkpt lat="28.5152382" lon="105.1352987"><ele>638.15</ele><time>2026-03-14T20:38:53.000Z</time></trkpt>
        <trkpt lat="28.5152381" lon="105.1352761"><ele>635.64</ele><time>2026-03-14T20:38:57.000Z</time></trkpt>
        <trkpt lat="28.5153089" lon="105.135297"><ele>633.89</ele><time>2026-03-14T20:40:55.000Z</time></trkpt>
        <trkpt lat="28.5154031" lon="105.1352898"><ele>630.35</ele><time>2026-03-14T20:41:23.000Z</time></trkpt>
        <trkpt lat="28.5154877" lon="105.1353369"><ele>627.87</ele><time>2026-03-14T20:41:45.000Z</time></trkpt>
        <trkpt lat="28.5156063" lon="105.135338"><ele>625.21</ele><time>2026-03-14T20:45:39.000Z</time></trkpt>
        <trkpt lat="28.515604" lon="105.1353306"><ele>620</ele><time>2026-03-14T20:45:41.000Z</time></trkpt>
        <trkpt lat="28.5155228" lon="105.135447"><ele>617.17</ele><time>2026-03-14T20:48:03.000Z</time></trkpt>
        <trkpt lat="28.5156116" lon="105.1354015"><ele>613.59</ele><time>2026-03-14T20:48:15.000Z</time></trkpt>
        <trkpt lat="28.5155568" lon="105.1354391"><ele>611.87</ele><time>2026-03-14T20:48:51.000Z</time></trkpt>
        <trkpt lat="28.5156444" lon="105.1354427"><ele>608.78</ele><time>2026-03-14T20:50:09.000Z</time></trkpt>
        <trkpt lat="28.5156476" lon="105.1355452"><ele>605.71</ele><time>2026-03-14T20:50:19.000Z</time></trkpt>
        <trkpt lat="28.5156802" lon="105.1356481"><ele>602.02</ele><time>2026-03-14T20:50:29.000Z</time></trkpt>
        <trkpt lat="28.5156959" lon="105.1356505"><ele>599.49</ele><time>2026-03-14T20:50:41.000Z</time></trkpt>
        <trkpt lat="28.5156398" lon="105.1355985"><ele>596.86</ele><time>2026-03-14T20:51:39.000Z</time></trkpt>
        <trkpt lat="28.5156315" lon="105.1356086"><ele>596.96</ele><time>2026-03-14T20:51:41.000Z</time></trkpt>
        <trkpt lat="28.5156254" lon="105.1356908"><ele>596.91</ele><time>2026-03-14T20:52:01.000Z</time></trkpt>
        <trkpt lat="28.5156298" lon="105.1357124"><ele>597.1</ele><time>2026-03-14T20:52:03.000Z</time></trkpt>
        <trkpt lat="28.5156402" lon="105.1356371"><ele>597.1</ele><time>2026-03-14T20:52:23.000Z</time></trkpt>
        <trkpt lat="28.5156342" lon="105.1355999"><ele>598.29</ele><time>2026-03-14T20:52:25.000Z</time></trkpt>
        <trkpt lat="28.5155651" lon="105.1356919"><ele>598.95</ele><time>2026-03-14T20:52:31.000Z</time></trkpt>
        <trkpt lat="28.5155071" lon="105.1357613"><ele>599.93</ele><time>2026-03-14T20:52:45.000Z</time></trkpt>
        <trkpt lat="28.5154994" lon="105.1356633"><ele>601.07</ele><time>2026-03-14T20:53:49.000Z</time></trkpt>
        <trkpt lat="28.5154746" lon="105.1357216"><ele>602.02</ele><time>2026-03-14T20:53:51.000Z</time></trkpt>
        <trkpt lat="28.5154362" lon="105.1358375"><ele>602.05</ele><time>2026-03-14T20:54:01.000Z</time></trkpt>
        <trkpt lat="28.5153858" lon="105.1359326"><ele>600.98</ele><time>2026-03-14T20:54:05.000Z</time></trkpt>
        <trkpt lat="28.5153679" lon="105.1359599"><ele>599.74</ele><time>2026-03-14T20:54:07.000Z</time></trkpt>
        <trkpt lat="28.5154674" lon="105.1360425"><ele>598.74</ele><time>2026-03-14T20:54:23.000Z</time></trkpt>
        <trkpt lat="28.5154383" lon="105.1359803"><ele>595.93</ele><time>2026-03-14T20:54:47.000Z</time></trkpt>
        <trkpt lat="28.5154098" lon="105.1358631"><ele>596.15</ele><time>2026-03-14T20:54:51.000Z</time></trkpt>
        <trkpt lat="28.515399" lon="105.1358141"><ele>591.18</ele><time>2026-03-14T20:54:53.000Z</time></trkpt>
        <trkpt lat="28.5153862" lon="105.135726"><ele>588.42</ele><time>2026-03-14T20:55:15.000Z</time></trkpt>
        <trkpt lat="28.5153732" lon="105.1357168"><ele>586.26</ele><time>2026-03-14T20:55:17.000Z</time></trkpt>
        <trkpt lat="28.515481" lon="105.1355614"><ele>584.41</ele><time>2026-03-14T20:55:43.000Z</time></trkpt>
        <trkpt lat="28.5154465" lon="105.135609"><ele>584.24</ele><time>2026-03-14T20:55:47.000Z</time></trkpt>
        <trkpt lat="28.5154923" lon="105.1355388"><ele>582.66</ele><time>2026-03-14T20:55:55.000Z</time></trkpt>
        <trkpt lat="28.5154286" lon="105.1358183"><ele>582.66</ele><time>2026-03-14T20:56:03.000Z</time></trkpt>
        <trkpt lat="28.5153876" lon="105.1359386"><ele>580.95</ele><time>2026-03-14T20:56:07.000Z</time></trkpt>
        <trkpt lat="28.5154591" lon="105.135747"><ele>580.12</ele><time>2026-03-14T20:56:47.000Z</time></trkpt>
        <trkpt lat="28.51543" lon="105.1358143"><ele>579.75</ele><time>2026-03-14T20:56:49.000Z</time></trkpt>
        <trkpt lat="28.5154068" lon="105.1358997"><ele>578.75</ele><time>2026-03-14T20:56:59.000Z</time></trkpt>
        <trkpt lat="28.5154179" lon="105.1358457"><ele>577.17</ele><time>2026-03-14T20:57:29.000Z</time></trkpt>
        <trkpt lat="28.5154135" lon="105.1358313"><ele>574.1</ele><time>2026-03-14T20:57:35.000Z</time></trkpt>
        <trkpt lat="28.5154003" lon="105.1357411"><ele>573.96</ele><time>2026-03-14T20:57:47.000Z</time></trkpt>
        <trkpt lat="28.5153918" lon="105.1357114"><ele>574.22</ele><time>2026-03-14T20:57:53.000Z</time></trkpt>
        <trkpt lat="28.5153358" lon="105.1358318"><ele>574.49</ele><time>2026-03-14T20:58:31.000Z</time></trkpt>
        <trkpt lat="28.5153666" lon="105.1357031"><ele>578.74</ele><time>2026-03-14T20:58:34.000Z</time></trkpt>
        <trkpt lat="28.5153172" lon="105.1357136"><ele>579.6</ele><time>2026-03-14T20:58:49.000Z</time></trkpt>
        <trkpt lat="28.5153562" lon="105.1358272"><ele>579.74</ele><time>2026-03-14T20:58:55.000Z</time></trkpt>
        <trkpt lat="28.5153636" lon="105.1359555"><ele>585.56</ele><time>2026-03-14T20:59:27.000Z</time></trkpt>
        <trkpt lat="28.5154368" lon="105.1359735"><ele>587.05</ele><time>2026-03-14T20:59:53.000Z</time></trkpt>
        <trkpt lat="28.5154628" lon="105.1359502"><ele>588.38</ele><time>2026-03-14T21:00:05.000Z</time></trkpt>
        <trkpt lat="28.5155078" lon="105.1358662"><ele>591.34</ele><time>2026-03-14T21:00:31.000Z</time></trkpt>
        <trkpt lat="28.5154452" lon="105.1358311"><ele>591.66</ele><time>2026-03-14T21:01:05.000Z</time></trkpt>
        <trkpt lat="28.5153387" lon="105.135813"><ele>595.66</ele><time>2026-03-14T21:01:13.000Z</time></trkpt>
        <trkpt lat="28.5153404" lon="105.1357441"><ele>596.84</ele><time>2026-03-14T21:01:23.000Z</time></trkpt>
        <trkpt lat="28.5153952" lon="105.1357799"><ele>595.85</ele><time>2026-03-14T21:01:43.000Z</time></trkpt>
        <trkpt lat="28.5153657" lon="105.1358551"><ele>594.82</ele><time>2026-03-14T21:01:55.000Z</time></trkpt>
        <trkpt lat="28.5153292" lon="105.135888"><ele>593.59</ele><time>2026-03-14T21:02:05.000Z</time></trkpt>
        <trkpt lat="28.515323" lon="105.1359963"><ele>591.29</ele><time>2026-03-14T21:03:27.000Z</time></trkpt>
        <trkpt lat="28.5153988" lon="105.1359207"><ele>592.12</ele><time>2026-03-14T21:03:53.000Z</time></trkpt>
        <trkpt lat="28.5153391" lon="105.1359982"><ele>592.33</ele><time>2026-03-14T21:08:07.000Z</time></trkpt>
        <trkpt lat="28.5153465" lon="105.1359985"><ele>591.82</ele><time>2026-03-14T21:08:09.000Z</time></trkpt>
        <trkpt lat="28.5154039" lon="105.1360664"><ele>591.73</ele><time>2026-03-14T21:08:27.000Z</time></trkpt>
        <trkpt lat="28.5153973" lon="105.1360008"><ele>590.38</ele><time>2026-03-14T21:08:37.000Z</time></trkpt>
        <trkpt lat="28.5154329" lon="105.135916"><ele>591.57</ele><time>2026-03-14T21:08:49.000Z</time></trkpt>
        <trkpt lat="28.5153851" lon="105.1358012"><ele>592.67</ele><time>2026-03-14T21:09:57.000Z</time></trkpt>
        <trkpt lat="28.5153948" lon="105.1359299"><ele>591.25</ele><time>2026-03-14T21:10:25.000Z</time></trkpt>
        <trkpt lat="28.5153914" lon="105.1358633"><ele>591.23</ele><time>2026-03-14T21:10:49.000Z</time></trkpt>
        <trkpt lat="28.5153692" lon="105.1359315"><ele>589.16</ele><time>2026-03-14T21:12:07.000Z</time></trkpt>
        <trkpt lat="28.5153668" lon="105.1359184"><ele>589.88</ele><time>2026-03-14T21:12:19.000Z</time></trkpt>
        <trkpt lat="28.515433" lon="105.135866"><ele>590.07</ele><time>2026-03-14T21:12:57.000Z</time></trkpt>
        <trkpt lat="28.5155223" lon="105.1358729"><ele>590.94</ele><time>2026-03-14T21:13:05.000Z</time></trkpt>
        <trkpt lat="28.5156179" lon="105.1358789"><ele>591.98</ele><time>2026-03-14T21:13:17.000Z</time></trkpt>
        <trkpt lat="28.5156992" lon="105.1358565"><ele>595.36</ele><time>2026-03-14T21:13:51.000Z</time></trkpt>
        <trkpt lat="28.515761" lon="105.1359472"><ele>600.32</ele><time>2026-03-14T21:14:53.000Z</time></trkpt>
        <trkpt lat="28.5156757" lon="105.135903"><ele>602.58</ele><time>2026-03-14T21:15:15.000Z</time></trkpt>
        <trkpt lat="28.5156854" lon="105.1358759"><ele>602.68</ele><time>2026-03-14T21:15:19.000Z</time></trkpt>
        <trkpt lat="28.5156159" lon="105.1359263"><ele>601.87</ele><time>2026-03-14T21:16:39.000Z</time></trkpt>
        <trkpt lat="28.5155202" lon="105.1358734"><ele>602.4</ele><time>2026-03-14T21:18:07.000Z</time></trkpt>
        <trkpt lat="28.5155121" lon="105.1358447"><ele>603.95</ele><time>2026-03-14T21:18:11.000Z</time></trkpt>
        <trkpt lat="28.5154131" lon="105.1358168"><ele>605.2</ele><time>2026-03-14T21:19:33.000Z</time></trkpt>
        <trkpt lat="28.515339" lon="105.1359455"><ele>602.34</ele><time>2026-03-14T21:24:29.000Z</time></trkpt>
        <trkpt lat="28.5154199" lon="105.1358712"><ele>600.51</ele><time>2026-03-14T21:25:29.000Z</time></trkpt>
        <trkpt lat="28.5153284" lon="105.135903"><ele>598.57</ele><time>2026-03-14T21:27:39.000Z</time></trkpt>
        <trkpt lat="28.515415" lon="105.1358665"><ele>596.77</ele><time>2026-03-14T21:27:53.000Z</time></trkpt>
        <trkpt lat="28.5155055" lon="105.1358308"><ele>594.43</ele><time>2026-03-14T21:28:27.000Z</time></trkpt>
        <trkpt lat="28.5155979" lon="105.135811"><ele>595.75</ele><time>2026-03-14T21:28:53.000Z</time></trkpt>
        <trkpt lat="28.5156625" lon="105.1359032"><ele>593.78</ele><time>2026-03-14T21:32:37.000Z</time></trkpt>
        <trkpt lat="28.5157433" lon="105.1359542"><ele>598.55</ele><time>2026-03-14T21:32:47.000Z</time></trkpt>
        <trkpt lat="28.5158104" lon="105.1360263"><ele>601.22</ele><time>2026-03-14T21:33:31.000Z</time></trkpt>
        <trkpt lat="28.5158597" lon="105.1361138"><ele>602.9</ele><time>2026-03-14T21:33:39.000Z</time></trkpt>
        <trkpt lat="28.5158697" lon="105.1362362"><ele>603.96</ele><time>2026-03-14T21:33:47.000Z</time></trkpt>
        <trkpt lat="28.5159223" lon="105.1363382"><ele>602.79</ele><time>2026-03-14T21:33:57.000Z</time></trkpt>
        <trkpt lat="28.5159508" lon="105.1363576"><ele>602.27</ele><time>2026-03-14T21:34:01.000Z</time></trkpt>
        <trkpt lat="28.5160102" lon="105.1364231"><ele>602.51</ele><time>2026-03-14T21:34:23.000Z</time></trkpt>
        <trkpt lat="28.5160491" lon="105.1364814"><ele>602.38</ele><time>2026-03-14T21:34:31.000Z</time></trkpt>
        <trkpt lat="28.5161051" lon="105.136564"><ele>601.6</ele><time>2026-03-14T21:34:49.000Z</time></trkpt>
        <trkpt lat="28.5161844" lon="105.1366276"><ele>601.74</ele><time>2026-03-14T21:36:07.000Z</time></trkpt>
        <trkpt lat="28.5162537" lon="105.1366979"><ele>604.61</ele><time>2026-03-14T21:36:51.000Z</time></trkpt>
        <trkpt lat="28.5163473" lon="105.1367239"><ele>609.21</ele><time>2026-03-14T21:37:47.000Z</time></trkpt>
        <trkpt lat="28.5164452" lon="105.1367373"><ele>616.52</ele><time>2026-03-14T21:38:13.000Z</time></trkpt>
        <trkpt lat="28.5165363" lon="105.1367619"><ele>620.52</ele><time>2026-03-14T21:41:07.000Z</time></trkpt>
        <trkpt lat="28.5166361" lon="105.1367695"><ele>624.19</ele><time>2026-03-14T21:41:17.000Z</time></trkpt>
        <trkpt lat="28.5167427" lon="105.1367616"><ele>625.28</ele><time>2026-03-14T21:41:27.000Z</time></trkpt>
        <trkpt lat="28.5168417" lon="105.1367367"><ele>626.56</ele><time>2026-03-14T21:41:37.000Z</time></trkpt>
        <trkpt lat="28.5169382" lon="105.1367136"><ele>628.65</ele><time>2026-03-14T21:41:51.000Z</time></trkpt>
        <trkpt lat="28.5170317" lon="105.1366893"><ele>630.37</ele><time>2026-03-14T21:42:27.000Z</time></trkpt>
        <trkpt lat="28.5171212" lon="105.1366421"><ele>634.15</ele><time>2026-03-14T21:42:43.000Z</time></trkpt>
        <trkpt lat="28.5172188" lon="105.1366362"><ele>638.6</ele><time>2026-03-14T21:43:05.000Z</time></trkpt>
        <trkpt lat="28.5173095" lon="105.1366751"><ele>641.5</ele><time>2026-03-14T21:43:13.000Z</time></trkpt>
        <trkpt lat="28.517387" lon="105.1367453"><ele>643.98</ele><time>2026-03-14T21:43:23.000Z</time></trkpt>
        <trkpt lat="28.5174305" lon="105.1368519"><ele>645.9</ele><time>2026-03-14T21:43:33.000Z</time></trkpt>
        <trkpt lat="28.5174416" lon="105.1368946"><ele>647.44</ele><time>2026-03-14T21:43:35.000Z</time></trkpt>
        <trkpt lat="28.517498" lon="105.1369536"><ele>648.44</ele><time>2026-03-14T21:43:45.000Z</time></trkpt>
        <trkpt lat="28.5175762" lon="105.1369693"><ele>647.96</ele><time>2026-03-14T21:43:53.000Z</time></trkpt>
        <trkpt lat="28.5176605" lon="105.1369277"><ele>647.44</ele><time>2026-03-14T21:44:09.000Z</time></trkpt>
        <trkpt lat="28.5177209" lon="105.1368346"><ele>650</ele><time>2026-03-14T21:44:17.000Z</time></trkpt>
        <trkpt lat="28.517802" lon="105.1367558"><ele>650.2</ele><time>2026-03-14T21:44:27.000Z</time></trkpt>
        <trkpt lat="28.5178915" lon="105.1367197"><ele>650.13</ele><time>2026-03-14T21:44:39.000Z</time></trkpt>
        <trkpt lat="28.5179891" lon="105.1367083"><ele>649.06</ele><time>2026-03-14T21:44:51.000Z</time></trkpt>
        <trkpt lat="28.5180591" lon="105.1366478"><ele>648.34</ele><time>2026-03-14T21:45:11.000Z</time></trkpt>
        <trkpt lat="28.5181485" lon="105.1366136"><ele>647.32</ele><time>2026-03-14T21:45:23.000Z</time></trkpt>
        <trkpt lat="28.5182356" lon="105.13658"><ele>646.34</ele><time>2026-03-14T21:45:39.000Z</time></trkpt>
        <trkpt lat="28.5183207" lon="105.1365312"><ele>646.63</ele><time>2026-03-14T21:45:53.000Z</time></trkpt>
        <trkpt lat="28.5183817" lon="105.1364457"><ele>645.76</ele><time>2026-03-14T21:46:19.000Z</time></trkpt>
        <trkpt lat="28.5184414" lon="105.1363484"><ele>644.27</ele><time>2026-03-14T21:46:37.000Z</time></trkpt>
        <trkpt lat="28.5184763" lon="105.1363105"><ele>641</ele><time>2026-03-14T21:46:45.000Z</time></trkpt>
        <trkpt lat="28.5185593" lon="105.1362937"><ele>639.34</ele><time>2026-03-14T21:47:27.000Z</time></trkpt>
        <trkpt lat="28.5186579" lon="105.1362671"><ele>637.52</ele><time>2026-03-14T21:47:37.000Z</time></trkpt>
        <trkpt lat="28.5187576" lon="105.1362395"><ele>634.97</ele><time>2026-03-14T21:47:45.000Z</time></trkpt>
        <trkpt lat="28.5188647" lon="105.1362249"><ele>632.64</ele><time>2026-03-14T21:47:55.000Z</time></trkpt>
        <trkpt lat="28.5189654" lon="105.1362139"><ele>631.16</ele><time>2026-03-14T21:48:07.000Z</time></trkpt>
        <trkpt lat="28.5190687" lon="105.1362045"><ele>631.31</ele><time>2026-03-14T21:48:21.000Z</time></trkpt>
        <trkpt lat="28.5191195" lon="105.1361771"><ele>631.88</ele><time>2026-03-14T21:48:33.000Z</time></trkpt>
        <trkpt lat="28.5191686" lon="105.1361048"><ele>633.79</ele><time>2026-03-14T21:48:53.000Z</time></trkpt>
        <trkpt lat="28.5191945" lon="105.1360638"><ele>634.2</ele><time>2026-03-14T21:48:57.000Z</time></trkpt>
        <trkpt lat="28.5192588" lon="105.1360191"><ele>634.3</ele><time>2026-03-14T21:49:09.000Z</time></trkpt>
        <trkpt lat="28.5193384" lon="105.1359644"><ele>633.28</ele><time>2026-03-14T21:49:21.000Z</time></trkpt>
        <trkpt lat="28.5193999" lon="105.1358757"><ele>630.39</ele><time>2026-03-14T21:49:37.000Z</time></trkpt>
        <trkpt lat="28.5194517" lon="105.135769"><ele>626.45</ele><time>2026-03-14T21:49:51.000Z</time></trkpt>
        <trkpt lat="28.5195013" lon="105.135671"><ele>622.85</ele><time>2026-03-14T21:50:03.000Z</time></trkpt>
        <trkpt lat="28.5195876" lon="105.1356021"><ele>619.63</ele><time>2026-03-14T21:50:13.000Z</time></trkpt>
        <trkpt lat="28.5196794" lon="105.1355467"><ele>617.31</ele><time>2026-03-14T21:50:21.000Z</time></trkpt>
        <trkpt lat="28.5197344" lon="105.1355178"><ele>615.23</ele><time>2026-03-14T21:50:25.000Z</time></trkpt>
        <trkpt lat="28.5198176" lon="105.1355377"><ele>612.94</ele><time>2026-03-14T21:50:55.000Z</time></trkpt>
        <trkpt lat="28.5198424" lon="105.135646"><ele>609.55</ele><time>2026-03-14T21:51:09.000Z</time></trkpt>
        <trkpt lat="28.51988" lon="105.1357607"><ele>606.06</ele><time>2026-03-14T21:51:19.000Z</time></trkpt>
        <trkpt lat="28.5199161" lon="105.1358327"><ele>603.27</ele><time>2026-03-14T21:51:29.000Z</time></trkpt>
        <trkpt lat="28.5200018" lon="105.1358699"><ele>601.25</ele><time>2026-03-14T21:52:55.000Z</time></trkpt>
        <trkpt lat="28.520087" lon="105.1359242"><ele>601.4</ele><time>2026-03-14T21:53:09.000Z</time></trkpt>
        <trkpt lat="28.5201336" lon="105.136029"><ele>602.83</ele><time>2026-03-14T21:53:31.000Z</time></trkpt>
        <trkpt lat="28.5201518" lon="105.136136"><ele>603.51</ele><time>2026-03-14T21:53:55.000Z</time></trkpt>
        <trkpt lat="28.5201432" lon="105.1362477"><ele>603.43</ele><time>2026-03-14T21:54:05.000Z</time></trkpt>
        <trkpt lat="28.5201" lon="105.1363606"><ele>602.7</ele><time>2026-03-14T21:54:15.000Z</time></trkpt>
        <trkpt lat="28.5200896" lon="105.1364677"><ele>601.88</ele><time>2026-03-14T21:54:25.000Z</time></trkpt>
        <trkpt lat="28.5200802" lon="105.1365829"><ele>601.8</ele><time>2026-03-14T21:54:35.000Z</time></trkpt>
        <trkpt lat="28.5200216" lon="105.1366656"><ele>601.48</ele><time>2026-03-14T21:54:45.000Z</time></trkpt>
        <trkpt lat="28.5199255" lon="105.1366787"><ele>601.12</ele><time>2026-03-14T21:54:55.000Z</time></trkpt>
        <trkpt lat="28.5198212" lon="105.1366548"><ele>600.95</ele><time>2026-03-14T21:55:05.000Z</time></trkpt>
        <trkpt lat="28.5197188" lon="105.1366522"><ele>600.2</ele><time>2026-03-14T21:55:15.000Z</time></trkpt>
        <trkpt lat="28.5196322" lon="105.1366901"><ele>599.56</ele><time>2026-03-14T21:55:25.000Z</time></trkpt>
        <trkpt lat="28.5195547" lon="105.1367495"><ele>600.46</ele><time>2026-03-14T21:55:35.000Z</time></trkpt>
        <trkpt lat="28.5195226" lon="105.1368484"><ele>601.35</ele><time>2026-03-14T21:55:45.000Z</time></trkpt>
        <trkpt lat="28.5195469" lon="105.1369624"><ele>602.74</ele><time>2026-03-14T21:56:31.000Z</time></trkpt>
        <trkpt lat="28.5195649" lon="105.1370772"><ele>604.14</ele><time>2026-03-14T21:56:43.000Z</time></trkpt>
        <trkpt lat="28.5196029" lon="105.1371804"><ele>603.62</ele><time>2026-03-14T21:56:53.000Z</time></trkpt>
        <trkpt lat="28.5195911" lon="105.1372824"><ele>603.47</ele><time>2026-03-14T21:57:05.000Z</time></trkpt>
        <trkpt lat="28.5195355" lon="105.1373727"><ele>603.16</ele><time>2026-03-14T21:57:17.000Z</time></trkpt>
        <trkpt lat="28.5195002" lon="105.137468"><ele>603.88</ele><time>2026-03-14T21:57:31.000Z</time></trkpt>
        <trkpt lat="28.5195237" lon="105.1375637"><ele>605.41</ele><time>2026-03-14T21:58:19.000Z</time></trkpt>
        <trkpt lat="28.5196052" lon="105.1376081"><ele>607.93</ele><time>2026-03-14T21:58:41.000Z</time></trkpt>
        <trkpt lat="28.5197085" lon="105.1376329"><ele>610.46</ele><time>2026-03-14T21:58:55.000Z</time></trkpt>
        <trkpt lat="28.519816" lon="105.1376418"><ele>611.6</ele><time>2026-03-14T21:59:07.000Z</time></trkpt>
        <trkpt lat="28.5199192" lon="105.1376635"><ele>612.16</ele><time>2026-03-14T21:59:19.000Z</time></trkpt>
        <trkpt lat="28.5200046" lon="105.1377233"><ele>611.99</ele><time>2026-03-14T21:59:29.000Z</time></trkpt>
        <trkpt lat="28.5200245" lon="105.1378203"><ele>611.22</ele><time>2026-03-14T21:59:37.000Z</time></trkpt>
        <trkpt lat="28.5199688" lon="105.1379198"><ele>609.06</ele><time>2026-03-14T21:59:47.000Z</time></trkpt>
        <trkpt lat="28.5198856" lon="105.1380122"><ele>606.79</ele><time>2026-03-14T21:59:57.000Z</time></trkpt>
        <trkpt lat="28.5198204" lon="105.138105"><ele>605.06</ele><time>2026-03-14T22:00:05.000Z</time></trkpt>
        <trkpt lat="28.5197724" lon="105.1382034"><ele>603.06</ele><time>2026-03-14T22:00:13.000Z</time></trkpt>
        <trkpt lat="28.5197448" lon="105.1383103"><ele>601.19</ele><time>2026-03-14T22:00:21.000Z</time></trkpt>
        <trkpt lat="28.5196811" lon="105.1383809"><ele>599.65</ele><time>2026-03-14T22:00:31.000Z</time></trkpt>
        <trkpt lat="28.5196305" lon="105.1383929"><ele>599.43</ele><time>2026-03-14T22:00:37.000Z</time></trkpt>
        <trkpt lat="28.5196282" lon="105.1382966"><ele>599.44</ele><time>2026-03-14T22:00:53.000Z</time></trkpt>
        <trkpt lat="28.519631" lon="105.1382388"><ele>600.54</ele><time>2026-03-14T22:00:57.000Z</time></trkpt>
        <trkpt lat="28.5196258" lon="105.1383297"><ele>601.51</ele><time>2026-03-14T22:03:05.000Z</time></trkpt>
        <trkpt lat="28.5195366" lon="105.1383641"><ele>600.46</ele><time>2026-03-14T22:03:15.000Z</time></trkpt>
        <trkpt lat="28.5196399" lon="105.1383992"><ele>600.24</ele><time>2026-03-14T22:04:43.000Z</time></trkpt>
        <trkpt lat="28.5197276" lon="105.1384822"><ele>598.97</ele><time>2026-03-14T22:04:53.000Z</time></trkpt>
        <trkpt lat="28.5196624" lon="105.1385319"><ele>597.09</ele><time>2026-03-14T22:05:11.000Z</time></trkpt>
        <trkpt lat="28.5196021" lon="105.1385572"><ele>598.01</ele><time>2026-03-14T22:05:25.000Z</time></trkpt>
        <trkpt lat="28.5196777" lon="105.1385365"><ele>597.47</ele><time>2026-03-14T22:06:29.000Z</time></trkpt>
        <trkpt lat="28.5196873" lon="105.1386475"><ele>596.91</ele><time>2026-03-14T22:06:51.000Z</time></trkpt>
        <trkpt lat="28.5196901" lon="105.1387647"><ele>597.57</ele><time>2026-03-14T22:07:01.000Z</time></trkpt>
        <trkpt lat="28.5197067" lon="105.138869"><ele>597.22</ele><time>2026-03-14T22:07:09.000Z</time></trkpt>
        <trkpt lat="28.5197268" lon="105.138865"><ele>595.95</ele><time>2026-03-14T22:07:11.000Z</time></trkpt>
        <trkpt lat="28.5197207" lon="105.1389366"><ele>595</ele><time>2026-03-14T22:07:19.000Z</time></trkpt>
        <trkpt lat="28.5197306" lon="105.1390394"><ele>595.02</ele><time>2026-03-14T22:07:27.000Z</time></trkpt>
        <trkpt lat="28.5197439" lon="105.1391482"><ele>595.62</ele><time>2026-03-14T22:07:35.000Z</time></trkpt>
        <trkpt lat="28.5197119" lon="105.1392442"><ele>595.21</ele><time>2026-03-14T22:07:45.000Z</time></trkpt>
        <trkpt lat="28.5196726" lon="105.139346"><ele>594.6</ele><time>2026-03-14T22:07:57.000Z</time></trkpt>
        <trkpt lat="28.5196885" lon="105.1394521"><ele>594.43</ele><time>2026-03-14T22:08:11.000Z</time></trkpt>
        <trkpt lat="28.5197358" lon="105.139558"><ele>593.77</ele><time>2026-03-14T22:08:21.000Z</time></trkpt>
        <trkpt lat="28.519817" lon="105.139616"><ele>593.73</ele><time>2026-03-14T22:08:31.000Z</time></trkpt>
        <trkpt lat="28.5198883" lon="105.1396648"><ele>592.82</ele><time>2026-03-14T22:08:49.000Z</time></trkpt>
        <trkpt lat="28.5199378" lon="105.1397638"><ele>591.32</ele><time>2026-03-14T22:09:07.000Z</time></trkpt>
        <trkpt lat="28.5199947" lon="105.1398563"><ele>590.61</ele><time>2026-03-14T22:09:17.000Z</time></trkpt>
        <trkpt lat="28.5200745" lon="105.1399103"><ele>589.66</ele><time>2026-03-14T22:09:29.000Z</time></trkpt>
        <trkpt lat="28.5201585" lon="105.1399671"><ele>589.45</ele><time>2026-03-14T22:09:53.000Z</time></trkpt>
        <trkpt lat="28.5202237" lon="105.1400399"><ele>590.1</ele><time>2026-03-14T22:10:05.000Z</time></trkpt>
        <trkpt lat="28.5202689" lon="105.1401376"><ele>590.66</ele><time>2026-03-14T22:10:15.000Z</time></trkpt>
        <trkpt lat="28.5203194" lon="105.1402384"><ele>593</ele><time>2026-03-14T22:10:29.000Z</time></trkpt>
        <trkpt lat="28.5203975" lon="105.1402518"><ele>594.48</ele><time>2026-03-14T22:10:39.000Z</time></trkpt>
        <trkpt lat="28.5204891" lon="105.1402296"><ele>594.7</ele><time>2026-03-14T22:10:51.000Z</time></trkpt>
        <trkpt lat="28.5205462" lon="105.1402885"><ele>594.92</ele><time>2026-03-14T22:11:05.000Z</time></trkpt>
        <trkpt lat="28.5205482" lon="105.1403941"><ele>594.01</ele><time>2026-03-14T22:11:23.000Z</time></trkpt>
        <trkpt lat="28.5205146" lon="105.1405113"><ele>591.91</ele><time>2026-03-14T22:11:37.000Z</time></trkpt>
        <trkpt lat="28.5204771" lon="105.1406215"><ele>590.33</ele><time>2026-03-14T22:11:45.000Z</time></trkpt>
        <trkpt lat="28.520447" lon="105.1407334"><ele>589.47</ele><time>2026-03-14T22:11:53.000Z</time></trkpt>
        <trkpt lat="28.5204413" lon="105.1408473"><ele>589.08</ele><time>2026-03-14T22:12:01.000Z</time></trkpt>
        <trkpt lat="28.5205009" lon="105.140933"><ele>587.81</ele><time>2026-03-14T22:12:11.000Z</time></trkpt>
        <trkpt lat="28.5205946" lon="105.140999"><ele>588.17</ele><time>2026-03-14T22:12:21.000Z</time></trkpt>
        <trkpt lat="28.5206946" lon="105.1410711"><ele>590.18</ele><time>2026-03-14T22:12:31.000Z</time></trkpt>
        <trkpt lat="28.5208011" lon="105.1411129"><ele>591.41</ele><time>2026-03-14T22:12:39.000Z</time></trkpt>
        <trkpt lat="28.5208993" lon="105.141091"><ele>591.81</ele><time>2026-03-14T22:12:47.000Z</time></trkpt>
        <trkpt lat="28.5209844" lon="105.1410169"><ele>592.46</ele><time>2026-03-14T22:12:59.000Z</time></trkpt>
        <trkpt lat="28.521071" lon="105.1409325"><ele>594.43</ele><time>2026-03-14T22:13:09.000Z</time></trkpt>
        <trkpt lat="28.5211349" lon="105.1408383"><ele>596.64</ele><time>2026-03-14T22:13:21.000Z</time></trkpt>
        <trkpt lat="28.5212192" lon="105.1407784"><ele>598.52</ele><time>2026-03-14T22:13:33.000Z</time></trkpt>
        <trkpt lat="28.5213096" lon="105.1407477"><ele>599.66</ele><time>2026-03-14T22:14:23.000Z</time></trkpt>
        <trkpt lat="28.5213997" lon="105.1407242"><ele>600.19</ele><time>2026-03-14T22:14:33.000Z</time></trkpt>
        <trkpt lat="28.5214918" lon="105.1407141"><ele>601.79</ele><time>2026-03-14T22:14:43.000Z</time></trkpt>
        <trkpt lat="28.521574" lon="105.1407697"><ele>602.41</ele><time>2026-03-14T22:14:53.000Z</time></trkpt>
        <trkpt lat="28.5216176" lon="105.1408714"><ele>600.69</ele><time>2026-03-14T22:15:05.000Z</time></trkpt>
        <trkpt lat="28.521625" lon="105.1409986"><ele>597.43</ele><time>2026-03-14T22:15:21.000Z</time></trkpt>
        <trkpt lat="28.5216112" lon="105.1411285"><ele>597.22</ele><time>2026-03-14T22:15:31.000Z</time></trkpt>
        <trkpt lat="28.5215819" lon="105.1412465"><ele>598.19</ele><time>2026-03-14T22:15:41.000Z</time></trkpt>
        <trkpt lat="28.5215513" lon="105.1413569"><ele>598.68</ele><time>2026-03-14T22:15:51.000Z</time></trkpt>
        <trkpt lat="28.5215336" lon="105.1414103"><ele>599.34</ele><time>2026-03-14T22:15:55.000Z</time></trkpt>
        <trkpt lat="28.5214852" lon="105.1414772"><ele>599.44</ele><time>2026-03-14T22:16:11.000Z</time></trkpt>
        <trkpt lat="28.5214135" lon="105.1415355"><ele>598.08</ele><time>2026-03-14T22:16:23.000Z</time></trkpt>
        <trkpt lat="28.5213503" lon="105.1416287"><ele>597.38</ele><time>2026-03-14T22:16:53.000Z</time></trkpt>
        <trkpt lat="28.5213056" lon="105.1417381"><ele>594.97</ele><time>2026-03-14T22:17:03.000Z</time></trkpt>
        <trkpt lat="28.5212943" lon="105.1417641"><ele>593.1</ele><time>2026-03-14T22:17:05.000Z</time></trkpt>
        <trkpt lat="28.5213041" lon="105.1416771"><ele>591.85</ele><time>2026-03-14T22:17:35.000Z</time></trkpt>
        <trkpt lat="28.5213308" lon="105.1415643"><ele>591.54</ele><time>2026-03-14T22:17:45.000Z</time></trkpt>
        <trkpt lat="28.5214024" lon="105.1414613"><ele>592.14</ele><time>2026-03-14T22:17:55.000Z</time></trkpt>
        <trkpt lat="28.5214692" lon="105.1413499"><ele>594.94</ele><time>2026-03-14T22:18:07.000Z</time></trkpt>
        <trkpt lat="28.5214753" lon="105.1412364"><ele>597.18</ele><time>2026-03-14T22:18:17.000Z</time></trkpt>
        <trkpt lat="28.5214205" lon="105.1411499"><ele>598.65</ele><time>2026-03-14T22:18:27.000Z</time></trkpt>
        <trkpt lat="28.5213709" lon="105.141123"><ele>599.35</ele><time>2026-03-14T22:18:33.000Z</time></trkpt>
        <trkpt lat="28.521291" lon="105.1411702"><ele>600.02</ele><time>2026-03-14T22:18:49.000Z</time></trkpt>
        <trkpt lat="28.521293" lon="105.1411209"><ele>599.87</ele><time>2026-03-14T22:19:11.000Z</time></trkpt>
        <trkpt lat="28.5212906" lon="105.1410274"><ele>599.79</ele><time>2026-03-14T22:19:29.000Z</time></trkpt>
        <trkpt lat="28.5212393" lon="105.1409399"><ele>598.1</ele><time>2026-03-14T22:19:41.000Z</time></trkpt>
        <trkpt lat="28.5211532" lon="105.1409487"><ele>599.04</ele><time>2026-03-14T22:19:51.000Z</time></trkpt>
        <trkpt lat="28.5210632" lon="105.1410206"><ele>599.42</ele><time>2026-03-14T22:20:03.000Z</time></trkpt>
        <trkpt lat="28.5209759" lon="105.141102"><ele>601.8</ele><time>2026-03-14T22:20:15.000Z</time></trkpt>
        <trkpt lat="28.5208842" lon="105.1411687"><ele>602.98</ele><time>2026-03-14T22:20:27.000Z</time></trkpt>
        <trkpt lat="28.5207911" lon="105.1412242"><ele>604.98</ele><time>2026-03-14T22:20:41.000Z</time></trkpt>
        <trkpt lat="28.5207048" lon="105.1412845"><ele>606.07</ele><time>2026-03-14T22:20:55.000Z</time></trkpt>
        <trkpt lat="28.5206235" lon="105.1412614"><ele>605.15</ele><time>2026-03-14T22:21:11.000Z</time></trkpt>
        <trkpt lat="28.520539" lon="105.1412099"><ele>600.41</ele><time>2026-03-14T22:22:01.000Z</time></trkpt>
        <trkpt lat="28.5204399" lon="105.1411712"><ele>597.41</ele><time>2026-03-14T22:22:19.000Z</time></trkpt>
        <trkpt lat="28.5203351" lon="105.1411576"><ele>599.25</ele><time>2026-03-14T22:22:29.000Z</time></trkpt>
        <trkpt lat="28.5202418" lon="105.1411117"><ele>600.7</ele><time>2026-03-14T22:22:41.000Z</time></trkpt>
        <trkpt lat="28.5201556" lon="105.1411362"><ele>601.16</ele><time>2026-03-14T22:22:55.000Z</time></trkpt>
        <trkpt lat="28.5201195" lon="105.1412342"><ele>603.33</ele><time>2026-03-14T22:23:09.000Z</time></trkpt>
        <trkpt lat="28.5201246" lon="105.1413517"><ele>604.59</ele><time>2026-03-14T22:23:19.000Z</time></trkpt>
        <trkpt lat="28.5201626" lon="105.1414686"><ele>605.94</ele><time>2026-03-14T22:23:31.000Z</time></trkpt>
        <trkpt lat="28.5201866" lon="105.1415908"><ele>606.69</ele><time>2026-03-14T22:23:43.000Z</time></trkpt>
        <trkpt lat="28.5202173" lon="105.1417081"><ele>607.04</ele><time>2026-03-14T22:23:55.000Z</time></trkpt>
        <trkpt lat="28.5202519" lon="105.1418235"><ele>608.67</ele><time>2026-03-14T22:24:07.000Z</time></trkpt>
        <trkpt lat="28.5202901" lon="105.141935"><ele>611.56</ele><time>2026-03-14T22:24:21.000Z</time></trkpt>
        <trkpt lat="28.5203092" lon="105.1420425"><ele>615.13</ele><time>2026-03-14T22:24:33.000Z</time></trkpt>
        <trkpt lat="28.5203118" lon="105.1421549"><ele>617.19</ele><time>2026-03-14T22:24:45.000Z</time></trkpt>
        <trkpt lat="28.5202445" lon="105.1422119"><ele>617.44</ele><time>2026-03-14T22:25:03.000Z</time></trkpt>
        <trkpt lat="28.5201432" lon="105.1422117"><ele>617.7</ele><time>2026-03-14T22:25:13.000Z</time></trkpt>
        <trkpt lat="28.5200419" lon="105.1422244"><ele>617.35</ele><time>2026-03-14T22:25:23.000Z</time></trkpt>
        <trkpt lat="28.5199644" lon="105.1422838"><ele>618.37</ele><time>2026-03-14T22:25:33.000Z</time></trkpt>
        <trkpt lat="28.5198851" lon="105.142353"><ele>619.93</ele><time>2026-03-14T22:25:45.000Z</time></trkpt>
        <trkpt lat="28.5198053" lon="105.1424187"><ele>618.93</ele><time>2026-03-14T22:25:57.000Z</time></trkpt>
        <trkpt lat="28.5197288" lon="105.1424821"><ele>618.46</ele><time>2026-03-14T22:26:11.000Z</time></trkpt>
        <trkpt lat="28.5196496" lon="105.1425531"><ele>617.03</ele><time>2026-03-14T22:26:57.000Z</time></trkpt>
        <trkpt lat="28.5196321" lon="105.1426534"><ele>615.88</ele><time>2026-03-14T22:27:09.000Z</time></trkpt>
        <trkpt lat="28.5196214" lon="105.1427609"><ele>613.55</ele><time>2026-03-14T22:27:23.000Z</time></trkpt>
        <trkpt lat="28.519608" lon="105.1428794"><ele>612.08</ele><time>2026-03-14T22:27:33.000Z</time></trkpt>
        <trkpt lat="28.5195577" lon="105.1429853"><ele>610.22</ele><time>2026-03-14T22:27:43.000Z</time></trkpt>
        <trkpt lat="28.5195072" lon="105.1430871"><ele>610.51</ele><time>2026-03-14T22:27:51.000Z</time></trkpt>
        <trkpt lat="28.5194218" lon="105.1431031"><ele>607.28</ele><time>2026-03-14T22:28:01.000Z</time></trkpt>
        <trkpt lat="28.5193177" lon="105.143106"><ele>603.68</ele><time>2026-03-14T22:28:11.000Z</time></trkpt>
        <trkpt lat="28.5192149" lon="105.1431341"><ele>602.42</ele><time>2026-03-14T22:28:21.000Z</time></trkpt>
        <trkpt lat="28.5191223" lon="105.1431967"><ele>601.46</ele><time>2026-03-14T22:28:31.000Z</time></trkpt>
        <trkpt lat="28.5190349" lon="105.1432409"><ele>601.48</ele><time>2026-03-14T22:28:39.000Z</time></trkpt>
        <trkpt lat="28.518949" lon="105.1432747"><ele>600.37</ele><time>2026-03-14T22:28:47.000Z</time></trkpt>
        <trkpt lat="28.5188511" lon="105.1433206"><ele>598.59</ele><time>2026-03-14T22:28:55.000Z</time></trkpt>
        <trkpt lat="28.5187867" lon="105.1433574"><ele>597.24</ele><time>2026-03-14T22:29:05.000Z</time></trkpt>
        <trkpt lat="28.5187345" lon="105.1434357"><ele>599</ele><time>2026-03-14T22:29:31.000Z</time></trkpt>
        <trkpt lat="28.5187152" lon="105.1435435"><ele>600.12</ele><time>2026-03-14T22:29:41.000Z</time></trkpt>
        <trkpt lat="28.5187105" lon="105.1436543"><ele>600.13</ele><time>2026-03-14T22:29:49.000Z</time></trkpt>
        <trkpt lat="28.5187051" lon="105.1437803"><ele>600.31</ele><time>2026-03-14T22:29:59.000Z</time></trkpt>
        <trkpt lat="28.5186966" lon="105.1438988"><ele>598.35</ele><time>2026-03-14T22:30:07.000Z</time></trkpt>
        <trkpt lat="28.5187225" lon="105.1438867"><ele>597.24</ele><time>2026-03-14T22:30:21.000Z</time></trkpt>
        <trkpt lat="28.5186726" lon="105.1439496"><ele>595.18</ele><time>2026-03-14T22:30:43.000Z</time></trkpt>
        <trkpt lat="28.5186319" lon="105.1440423"><ele>593.42</ele><time>2026-03-14T22:30:49.000Z</time></trkpt>
        <trkpt lat="28.518591" lon="105.1439503"><ele>593.44</ele><time>2026-03-14T22:33:03.000Z</time></trkpt>
        <trkpt lat="28.5185153" lon="105.1440131"><ele>587.54</ele><time>2026-03-14T22:33:21.000Z</time></trkpt>
        <trkpt lat="28.5184462" lon="105.1440816"><ele>586.06</ele><time>2026-03-14T22:35:47.000Z</time></trkpt>
        <trkpt lat="28.5184442" lon="105.1440857"><ele>585.2</ele><time>2026-03-14T22:35:51.000Z</time></trkpt>
        <trkpt lat="28.5185163" lon="105.1440224"><ele>584.54</ele><time>2026-03-14T22:39:37.000Z</time></trkpt>
        <trkpt lat="28.5184694" lon="105.1441255"><ele>583.02</ele><time>2026-03-14T22:39:51.000Z</time></trkpt>
        <trkpt lat="28.51839" lon="105.1441905"><ele>580.79</ele><time>2026-03-14T22:40:01.000Z</time></trkpt>
        <trkpt lat="28.5183414" lon="105.1442805"><ele>577.4</ele><time>2026-03-14T22:40:13.000Z</time></trkpt>
        <trkpt lat="28.5183239" lon="105.1443834"><ele>572.08</ele><time>2026-03-14T22:40:27.000Z</time></trkpt>
        <trkpt lat="28.518316" lon="105.1444914"><ele>568.42</ele><time>2026-03-14T22:40:41.000Z</time></trkpt>
        <trkpt lat="28.5183201" lon="105.1445995"><ele>564.43</ele><time>2026-03-14T22:40:55.000Z</time></trkpt>
        <trkpt lat="28.5183219" lon="105.1447094"><ele>560.42</ele><time>2026-03-14T22:41:03.000Z</time></trkpt>
        <trkpt lat="28.5183468" lon="105.1447537"><ele>557.18</ele><time>2026-03-14T22:41:07.000Z</time></trkpt>
        <trkpt lat="28.518351" lon="105.1448485"><ele>554.33</ele><time>2026-03-14T22:41:37.000Z</time></trkpt>
        <trkpt lat="28.5183517" lon="105.1449544"><ele>552.52</ele><time>2026-03-14T22:41:45.000Z</time></trkpt>
        <trkpt lat="28.5183749" lon="105.1450633"><ele>552.35</ele><time>2026-03-14T22:41:55.000Z</time></trkpt>
        <trkpt lat="28.5183376" lon="105.1451688"><ele>551.63</ele><time>2026-03-14T22:42:15.000Z</time></trkpt>
        <trkpt lat="28.518259" lon="105.1451561"><ele>548.33</ele><time>2026-03-14T22:42:27.000Z</time></trkpt>
        <trkpt lat="28.5181603" lon="105.1451683"><ele>544.52</ele><time>2026-03-14T22:42:45.000Z</time></trkpt>
        <trkpt lat="28.5180561" lon="105.1451824"><ele>540.54</ele><time>2026-03-14T22:43:03.000Z</time></trkpt>
        <trkpt lat="28.5179705" lon="105.1452327"><ele>537.88</ele><time>2026-03-14T22:43:17.000Z</time></trkpt>
        <trkpt lat="28.517875" lon="105.1452714"><ele>535.04</ele><time>2026-03-14T22:43:43.000Z</time></trkpt>
        <trkpt lat="28.5177906" lon="105.1453214"><ele>532.49</ele><time>2026-03-14T22:43:51.000Z</time></trkpt>
        <trkpt lat="28.517742" lon="105.1453778"><ele>529.92</ele><time>2026-03-14T22:43:59.000Z</time></trkpt>
        <trkpt lat="28.5176868" lon="105.1454618"><ele>528.72</ele><time>2026-03-14T22:44:21.000Z</time></trkpt>
        <trkpt lat="28.5176766" lon="105.1454884"><ele>526.08</ele><time>2026-03-14T22:44:23.000Z</time></trkpt>
        <trkpt lat="28.5177444" lon="105.1455148"><ele>524.6</ele><time>2026-03-14T22:45:11.000Z</time></trkpt>
        <trkpt lat="28.51784" lon="105.1455324"><ele>525.11</ele><time>2026-03-14T22:45:25.000Z</time></trkpt>
        <trkpt lat="28.5178394" lon="105.1456122"><ele>524.83</ele><time>2026-03-14T22:45:35.000Z</time></trkpt>
        <trkpt lat="28.5178082" lon="105.1457172"><ele>523.06</ele><time>2026-03-14T22:45:43.000Z</time></trkpt>
        <trkpt lat="28.5177506" lon="105.1458352"><ele>521.33</ele><time>2026-03-14T22:45:53.000Z</time></trkpt>
        <trkpt lat="28.5176777" lon="105.1459351"><ele>518.88</ele><time>2026-03-14T22:46:03.000Z</time></trkpt>
        <trkpt lat="28.5175931" lon="105.1460029"><ele>516.7</ele><time>2026-03-14T22:46:11.000Z</time></trkpt>
        <trkpt lat="28.5175728" lon="105.1461068"><ele>515.07</ele><time>2026-03-14T22:46:23.000Z</time></trkpt>
        <trkpt lat="28.5175535" lon="105.1462207"><ele>512.21</ele><time>2026-03-14T22:46:33.000Z</time></trkpt>
        <trkpt lat="28.5175414" lon="105.1463183"><ele>509.03</ele><time>2026-03-14T22:46:41.000Z</time></trkpt>
        <trkpt lat="28.517518" lon="105.1464193"><ele>506.89</ele><time>2026-03-14T22:46:55.000Z</time></trkpt>
        <trkpt lat="28.5174943" lon="105.1464611"><ele>505.38</ele><time>2026-03-14T22:46:59.000Z</time></trkpt>
        <trkpt lat="28.5174968" lon="105.1463307"><ele>504.76</ele><time>2026-03-14T22:48:15.000Z</time></trkpt>
        <trkpt lat="28.5175118" lon="105.1462201"><ele>506.06</ele><time>2026-03-14T22:49:01.000Z</time></trkpt>
        <trkpt lat="28.5175804" lon="105.1461452"><ele>507.64</ele><time>2026-03-14T22:49:49.000Z</time></trkpt>
        <trkpt lat="28.5175673" lon="105.1460518"><ele>508.84</ele><time>2026-03-14T22:50:01.000Z</time></trkpt>
        <trkpt lat="28.5175336" lon="105.1459398"><ele>509.86</ele><time>2026-03-14T22:50:13.000Z</time></trkpt>
        <trkpt lat="28.5174658" lon="105.1458531"><ele>509.69</ele><time>2026-03-14T22:50:25.000Z</time></trkpt>
        <trkpt lat="28.5173711" lon="105.1457819"><ele>509.58</ele><time>2026-03-14T22:50:35.000Z</time></trkpt>
        <trkpt lat="28.5173521" lon="105.1457592"><ele>509.67</ele><time>2026-03-14T22:50:37.000Z</time></trkpt>
        <trkpt lat="28.5172723" lon="105.145732"><ele>509.45</ele><time>2026-03-14T22:50:47.000Z</time></trkpt>
        <trkpt lat="28.5171771" lon="105.145725"><ele>507.73</ele><time>2026-03-14T22:50:53.000Z</time></trkpt>
        <trkpt lat="28.5171032" lon="105.1457149"><ele>506.54</ele><time>2026-03-14T22:50:57.000Z</time></trkpt>
        <trkpt lat="28.5170245" lon="105.1456748"><ele>506.15</ele><time>2026-03-14T22:51:09.000Z</time></trkpt>
        <trkpt lat="28.516983" lon="105.1455871"><ele>505.58</ele><time>2026-03-14T22:51:15.000Z</time></trkpt>
        <trkpt lat="28.5169547" lon="105.1454793"><ele>505.63</ele><time>2026-03-14T22:51:23.000Z</time></trkpt>
        <trkpt lat="28.5169385" lon="105.1453674"><ele>505.86</ele><time>2026-03-14T22:51:33.000Z</time></trkpt>
        <trkpt lat="28.5169355" lon="105.1452545"><ele>504.51</ele><time>2026-03-14T22:51:43.000Z</time></trkpt>
        <trkpt lat="28.5169395" lon="105.1452142"><ele>503.46</ele><time>2026-03-14T22:51:45.000Z</time></trkpt>
        <trkpt lat="28.516944" lon="105.1451262"><ele>503.07</ele><time>2026-03-14T22:51:55.000Z</time></trkpt>
        <trkpt lat="28.5169058" lon="105.1451074"><ele>502.35</ele><time>2026-03-14T22:51:59.000Z</time></trkpt>
        <trkpt lat="28.5169538" lon="105.145072"><ele>502.25</ele><time>2026-03-14T22:52:25.000Z</time></trkpt>
        <trkpt lat="28.5169872" lon="105.1449738"><ele>503.07</ele><time>2026-03-14T22:53:21.000Z</time></trkpt>
        <trkpt lat="28.5169589" lon="105.1448712"><ele>502.23</ele><time>2026-03-14T22:53:31.000Z</time></trkpt>
        <trkpt lat="28.5168784" lon="105.1448331"><ele>502.44</ele><time>2026-03-14T22:53:43.000Z</time></trkpt>
        <trkpt lat="28.5167722" lon="105.1448348"><ele>504.36</ele><time>2026-03-14T22:53:53.000Z</time></trkpt>
        <trkpt lat="28.516669" lon="105.144825"><ele>505.07</ele><time>2026-03-14T22:54:03.000Z</time></trkpt>
        <trkpt lat="28.5165684" lon="105.1447878"><ele>505.24</ele><time>2026-03-14T22:54:13.000Z</time></trkpt>
        <trkpt lat="28.516477" lon="105.1447374"><ele>504.66</ele><time>2026-03-14T22:54:25.000Z</time></trkpt>
        <trkpt lat="28.5163995" lon="105.1446738"><ele>505.04</ele><time>2026-03-14T22:54:35.000Z</time></trkpt>
        <trkpt lat="28.5163248" lon="105.1445919"><ele>505.11</ele><time>2026-03-14T22:54:45.000Z</time></trkpt>
        <trkpt lat="28.5162921" lon="105.1444864"><ele>505.3</ele><time>2026-03-14T22:54:55.000Z</time></trkpt>
        <trkpt lat="28.5163242" lon="105.144384"><ele>506.43</ele><time>2026-03-14T22:55:05.000Z</time></trkpt>
        <trkpt lat="28.5163776" lon="105.1443514"><ele>507.19</ele><time>2026-03-14T22:55:13.000Z</time></trkpt>
        <trkpt lat="28.5164058" lon="105.1442724"><ele>505.66</ele><time>2026-03-14T22:55:25.000Z</time></trkpt>
        <trkpt lat="28.5163481" lon="105.1442794"><ele>503.32</ele><time>2026-03-14T22:55:41.000Z</time></trkpt>
        <trkpt lat="28.5163503" lon="105.144376"><ele>500.98</ele><time>2026-03-14T22:55:51.000Z</time></trkpt>
        <trkpt lat="28.5164003" lon="105.1444872"><ele>499.03</ele><time>2026-03-14T22:56:03.000Z</time></trkpt>
        <trkpt lat="28.516482" lon="105.1445562"><ele>499.3</ele><time>2026-03-14T22:56:17.000Z</time></trkpt>
        <trkpt lat="28.5164703" lon="105.1444594"><ele>500.15</ele><time>2026-03-14T22:58:07.000Z</time></trkpt>
        <trkpt lat="28.5165693" lon="105.1444929"><ele>502.62</ele><time>2026-03-14T23:01:51.000Z</time></trkpt>
        <trkpt lat="28.5164749" lon="105.1444855"><ele>503.95</ele><time>2026-03-14T23:03:07.000Z</time></trkpt>
        <trkpt lat="28.516491" lon="105.1446002"><ele>506.67</ele><time>2026-03-14T23:06:43.000Z</time></trkpt>
        <trkpt lat="28.5165721" lon="105.1446869"><ele>505.64</ele><time>2026-03-14T23:06:55.000Z</time></trkpt>
        <trkpt lat="28.5166619" lon="105.1446893"><ele>504.67</ele><time>2026-03-14T23:07:07.000Z</time></trkpt>
        <trkpt lat="28.5167601" lon="105.1447122"><ele>503.5</ele><time>2026-03-14T23:07:23.000Z</time></trkpt>
        <trkpt lat="28.5168586" lon="105.1446879"><ele>503.75</ele><time>2026-03-14T23:07:39.000Z</time></trkpt>
        <trkpt lat="28.5169382" lon="105.1446279"><ele>504</ele><time>2026-03-14T23:07:53.000Z</time></trkpt>
        <trkpt lat="28.5169894" lon="105.144528"><ele>505.37</ele><time>2026-03-14T23:08:15.000Z</time></trkpt>
        <trkpt lat="28.517019" lon="105.1444194"><ele>507.98</ele><time>2026-03-14T23:08:29.000Z</time></trkpt>
        <trkpt lat="28.5170262" lon="105.1443946"><ele>510.97</ele><time>2026-03-14T23:08:31.000Z</time></trkpt>
        <trkpt lat="28.5169809" lon="105.1444564"><ele>512.64</ele><time>2026-03-14T23:09:03.000Z</time></trkpt>
        <trkpt lat="28.5169499" lon="105.1445749"><ele>512.63</ele><time>2026-03-14T23:09:21.000Z</time></trkpt>
        <trkpt lat="28.5169393" lon="105.1446394"><ele>510.66</ele><time>2026-03-14T23:09:25.000Z</time></trkpt>
        <trkpt lat="28.5168514" lon="105.1446845"><ele>508.99</ele><time>2026-03-14T23:10:47.000Z</time></trkpt>
        <trkpt lat="28.5167641" lon="105.1447229"><ele>507.22</ele><time>2026-03-14T23:10:57.000Z</time></trkpt>
        <trkpt lat="28.5166631" lon="105.1447047"><ele>506.04</ele><time>2026-03-14T23:11:07.000Z</time></trkpt>
        <trkpt lat="28.5165667" lon="105.1446994"><ele>505.13</ele><time>2026-03-14T23:11:17.000Z</time></trkpt>
        <trkpt lat="28.5165143" lon="105.1446172"><ele>504.52</ele><time>2026-03-14T23:11:27.000Z</time></trkpt>
        <trkpt lat="28.5164853" lon="105.1445593"><ele>504.67</ele><time>2026-03-14T23:11:35.000Z</time></trkpt>
        <trkpt lat="28.5164176" lon="105.144515"><ele>505.26</ele><time>2026-03-14T23:11:55.000Z</time></trkpt>
        <trkpt lat="28.5163208" lon="105.1444709"><ele>505.64</ele><time>2026-03-14T23:14:43.000Z</time></trkpt>
        <trkpt lat="28.5162877" lon="105.1444845"><ele>504.19</ele><time>2026-03-14T23:14:47.000Z</time></trkpt>
        <trkpt lat="28.5162726" lon="105.1445731"><ele>502.5</ele><time>2026-03-14T23:15:07.000Z</time></trkpt>
        <trkpt lat="28.5163332" lon="105.1446318"><ele>499.95</ele><time>2026-03-14T23:15:17.000Z</time></trkpt>
        <trkpt lat="28.5164151" lon="105.1446924"><ele>498.45</ele><time>2026-03-14T23:15:31.000Z</time></trkpt>
        <trkpt lat="28.5164679" lon="105.1447972"><ele>497.22</ele><time>2026-03-14T23:15:39.000Z</time></trkpt>
        <trkpt lat="28.5164151" lon="105.1448101"><ele>496.76</ele><time>2026-03-14T23:15:47.000Z</time></trkpt>
        <trkpt lat="28.5163258" lon="105.1447714"><ele>496.99</ele><time>2026-03-14T23:15:55.000Z</time></trkpt>
        <trkpt lat="28.5162169" lon="105.1447447"><ele>495.82</ele><time>2026-03-14T23:16:05.000Z</time></trkpt>
        <trkpt lat="28.5161111" lon="105.1447514"><ele>495.59</ele><time>2026-03-14T23:16:15.000Z</time></trkpt>
        <trkpt lat="28.5160413" lon="105.1447709"><ele>493.74</ele><time>2026-03-14T23:16:21.000Z</time></trkpt>
        <trkpt lat="28.5159517" lon="105.1447775"><ele>492.53</ele><time>2026-03-14T23:16:29.000Z</time></trkpt>
        <trkpt lat="28.515865" lon="105.1448062"><ele>491.96</ele><time>2026-03-14T23:16:37.000Z</time></trkpt>
        <trkpt lat="28.5158063" lon="105.1448048"><ele>491.37</ele><time>2026-03-14T23:16:43.000Z</time></trkpt>
        <trkpt lat="28.5157148" lon="105.144817"><ele>490.22</ele><time>2026-03-14T23:16:55.000Z</time></trkpt>
        <trkpt lat="28.5156125" lon="105.1447948"><ele>491.16</ele><time>2026-03-14T23:17:05.000Z</time></trkpt>
        <trkpt lat="28.5155084" lon="105.1447819"><ele>490.46</ele><time>2026-03-14T23:17:15.000Z</time></trkpt>
        <trkpt lat="28.5154136" lon="105.1447564"><ele>488.5</ele><time>2026-03-14T23:17:25.000Z</time></trkpt>
        <trkpt lat="28.5153921" lon="105.1447488"><ele>485.89</ele><time>2026-03-14T23:17:27.000Z</time></trkpt>
        <trkpt lat="28.5153292" lon="105.1447109"><ele>484.48</ele><time>2026-03-14T23:17:57.000Z</time></trkpt>
        <trkpt lat="28.5152413" lon="105.1446767"><ele>482.04</ele><time>2026-03-14T23:18:11.000Z</time></trkpt>
        <trkpt lat="28.5151676" lon="105.1446848"><ele>479.43</ele><time>2026-03-14T23:18:23.000Z</time></trkpt>
        <trkpt lat="28.5150801" lon="105.1446896"><ele>477.7</ele><time>2026-03-14T23:18:37.000Z</time></trkpt>
        <trkpt lat="28.5150238" lon="105.1446883"><ele>477.06</ele><time>2026-03-14T23:18:45.000Z</time></trkpt>
        <trkpt lat="28.5149446" lon="105.1446987"><ele>475.76</ele><time>2026-03-14T23:19:31.000Z</time></trkpt>
        <trkpt lat="28.5148836" lon="105.1446397"><ele>472.36</ele><time>2026-03-14T23:19:51.000Z</time></trkpt>
        <trkpt lat="28.5148172" lon="105.1446658"><ele>469.4</ele><time>2026-03-14T23:20:17.000Z</time></trkpt>
        <trkpt lat="28.5147236" lon="105.1446714"><ele>464.29</ele><time>2026-03-14T23:20:33.000Z</time></trkpt>
        <trkpt lat="28.5146245" lon="105.1446835"><ele>459.7</ele><time>2026-03-14T23:20:49.000Z</time></trkpt>
        <trkpt lat="28.5145235" lon="105.1446924"><ele>455.61</ele><time>2026-03-14T23:21:11.000Z</time></trkpt>
        <trkpt lat="28.5144292" lon="105.1446719"><ele>453.49</ele><time>2026-03-14T23:21:39.000Z</time></trkpt>
        <trkpt lat="28.5143971" lon="105.1445866"><ele>448.46</ele><time>2026-03-14T23:22:01.000Z</time></trkpt>
        <trkpt lat="28.5144329" lon="105.1444847"><ele>442.22</ele><time>2026-03-14T23:22:11.000Z</time></trkpt>
        <trkpt lat="28.51447" lon="105.1443701"><ele>438.21</ele><time>2026-03-14T23:22:23.000Z</time></trkpt>
        <trkpt lat="28.5145415" lon="105.1442818"><ele>437.59</ele><time>2026-03-14T23:22:35.000Z</time></trkpt>
        <trkpt lat="28.5145715" lon="105.1442463"><ele>436.31</ele><time>2026-03-14T23:22:39.000Z</time></trkpt>
        <trkpt lat="28.5145863" lon="105.1441645"><ele>435.67</ele><time>2026-03-14T23:22:49.000Z</time></trkpt>
        <trkpt lat="28.5146622" lon="105.1441345"><ele>436.14</ele><time>2026-03-14T23:22:59.000Z</time></trkpt>
        <trkpt lat="28.5147477" lon="105.144077"><ele>435.16</ele><time>2026-03-14T23:23:11.000Z</time></trkpt>
        <trkpt lat="28.5147109" lon="105.1440288"><ele>432.12</ele><time>2026-03-14T23:23:57.000Z</time></trkpt>
        <trkpt lat="28.5146142" lon="105.1440343"><ele>431.59</ele><time>2026-03-14T23:24:03.000Z</time></trkpt>
        <trkpt lat="28.5145698" lon="105.1440203"><ele>429.58</ele><time>2026-03-14T23:24:09.000Z</time></trkpt>
        <trkpt lat="28.5144735" lon="105.1439958"><ele>426.15</ele><time>2026-03-14T23:24:23.000Z</time></trkpt>
        <trkpt lat="28.5143658" lon="105.1439733"><ele>425.33</ele><time>2026-03-14T23:24:31.000Z</time></trkpt>
        <trkpt lat="28.5142598" lon="105.1439701"><ele>424.96</ele><time>2026-03-14T23:24:39.000Z</time></trkpt>
        <trkpt lat="28.5141578" lon="105.1439458"><ele>424.78</ele><time>2026-03-14T23:24:47.000Z</time></trkpt>
        <trkpt lat="28.5140596" lon="105.1439388"><ele>424.87</ele><time>2026-03-14T23:24:57.000Z</time></trkpt>
        <trkpt lat="28.5139614" lon="105.1439496"><ele>423.02</ele><time>2026-03-14T23:25:09.000Z</time></trkpt>
        <trkpt lat="28.5138898" lon="105.144014"><ele>420.5</ele><time>2026-03-14T23:25:21.000Z</time></trkpt>
        <trkpt lat="28.5138027" lon="105.1440738"><ele>421.42</ele><time>2026-03-14T23:25:35.000Z</time></trkpt>
        <trkpt lat="28.513713" lon="105.1440894"><ele>421.78</ele><time>2026-03-14T23:25:57.000Z</time></trkpt>
        <trkpt lat="28.5136174" lon="105.1440566"><ele>417.99</ele><time>2026-03-14T23:26:09.000Z</time></trkpt>
        <trkpt lat="28.5135297" lon="105.1440111"><ele>412.54</ele><time>2026-03-14T23:26:23.000Z</time></trkpt>
        <trkpt lat="28.5134885" lon="105.1440161"><ele>407.59</ele><time>2026-03-14T23:26:33.000Z</time></trkpt>
        <trkpt lat="28.5134152" lon="105.1440619"><ele>402.97</ele><time>2026-03-14T23:26:43.000Z</time></trkpt>
        <trkpt lat="28.5133226" lon="105.1441004"><ele>400.6</ele><time>2026-03-14T23:26:55.000Z</time></trkpt>
        <trkpt lat="28.5132188" lon="105.1441385"><ele>395.92</ele><time>2026-03-14T23:27:05.000Z</time></trkpt>
        <trkpt lat="28.5131052" lon="105.1441676"><ele>390.53</ele><time>2026-03-14T23:27:13.000Z</time></trkpt>
        <trkpt lat="28.5130453" lon="105.144145"><ele>385.35</ele><time>2026-03-14T23:27:17.000Z</time></trkpt>
        <trkpt lat="28.5129922" lon="105.1440623"><ele>381.25</ele><time>2026-03-14T23:27:35.000Z</time></trkpt>
        <trkpt lat="28.5129444" lon="105.1439519"><ele>377.55</ele><time>2026-03-14T23:27:45.000Z</time></trkpt>
        <trkpt lat="28.5129595" lon="105.1438914"><ele>374.32</ele><time>2026-03-14T23:27:51.000Z</time></trkpt>
        <trkpt lat="28.5129733" lon="105.1437973"><ele>372.68</ele><time>2026-03-14T23:28:01.000Z</time></trkpt>
        <trkpt lat="28.5130143" lon="105.1436867"><ele>372.23</ele><time>2026-03-14T23:28:11.000Z</time></trkpt>
        <trkpt lat="28.5130069" lon="105.1435771"><ele>368.94</ele><time>2026-03-14T23:28:21.000Z</time></trkpt>
        <trkpt lat="28.5129308" lon="105.1435391"><ele>367.16</ele><time>2026-03-14T23:28:29.000Z</time></trkpt>
        <trkpt lat="28.5128407" lon="105.1435749"><ele>366.08</ele><time>2026-03-14T23:28:41.000Z</time></trkpt>
        <trkpt lat="28.5127904" lon="105.1436786"><ele>367.13</ele><time>2026-03-14T23:29:03.000Z</time></trkpt>
        <trkpt lat="28.5127344" lon="105.1437869"><ele>366.84</ele><time>2026-03-14T23:29:13.000Z</time></trkpt>
        <trkpt lat="28.5126907" lon="105.1438946"><ele>365.45</ele><time>2026-03-14T23:29:21.000Z</time></trkpt>
        <trkpt lat="28.5126905" lon="105.1440101"><ele>364.23</ele><time>2026-03-14T23:29:31.000Z</time></trkpt>
        <trkpt lat="28.5127022" lon="105.1441259"><ele>363.56</ele><time>2026-03-14T23:29:41.000Z</time></trkpt>
        <trkpt lat="28.5127356" lon="105.1442372"><ele>362.98</ele><time>2026-03-14T23:29:51.000Z</time></trkpt>
        <trkpt lat="28.5127783" lon="105.1443463"><ele>363.93</ele><time>2026-03-14T23:30:01.000Z</time></trkpt>
        <trkpt lat="28.5128271" lon="105.1444463"><ele>364.49</ele><time>2026-03-14T23:30:11.000Z</time></trkpt>
        <trkpt lat="28.5128538" lon="105.1445595"><ele>364.87</ele><time>2026-03-14T23:30:21.000Z</time></trkpt>
        <trkpt lat="28.5128538" lon="105.1446797"><ele>364.14</ele><time>2026-03-14T23:30:31.000Z</time></trkpt>
        <trkpt lat="28.5128394" lon="105.1447913"><ele>363.95</ele><time>2026-03-14T23:30:39.000Z</time></trkpt>
        <trkpt lat="28.5127947" lon="105.1449038"><ele>363.56</ele><time>2026-03-14T23:30:49.000Z</time></trkpt>
        <trkpt lat="28.5127338" lon="105.1449969"><ele>361.22</ele><time>2026-03-14T23:30:57.000Z</time></trkpt>
        <trkpt lat="28.5126627" lon="105.1450785"><ele>359.87</ele><time>2026-03-14T23:31:05.000Z</time></trkpt>
        <trkpt lat="28.5125868" lon="105.1451583"><ele>357.95</ele><time>2026-03-14T23:31:13.000Z</time></trkpt>
        <trkpt lat="28.5125206" lon="105.1452428"><ele>357.91</ele><time>2026-03-14T23:31:21.000Z</time></trkpt>
        <trkpt lat="28.5125022" lon="105.14531"><ele>358.14</ele><time>2026-03-14T23:31:29.000Z</time></trkpt>
        <trkpt lat="28.512449" lon="105.145371"><ele>358.21</ele><time>2026-03-14T23:32:13.000Z</time></trkpt>
        <trkpt lat="28.5123857" lon="105.1454534"><ele>359.38</ele><time>2026-03-14T23:32:29.000Z</time></trkpt>
        <trkpt lat="28.5123956" lon="105.1455463"><ele>361.65</ele><time>2026-03-14T23:32:41.000Z</time></trkpt>
        <trkpt lat="28.5123932" lon="105.1456505"><ele>361.9</ele><time>2026-03-14T23:32:51.000Z</time></trkpt>
        <trkpt lat="28.5123699" lon="105.1457551"><ele>361.44</ele><time>2026-03-14T23:33:01.000Z</time></trkpt>
        <trkpt lat="28.512342" lon="105.1458702"><ele>359.02</ele><time>2026-03-14T23:33:11.000Z</time></trkpt>
        <trkpt lat="28.5123174" lon="105.1459868"><ele>359.81</ele><time>2026-03-14T23:33:21.000Z</time></trkpt>
        <trkpt lat="28.512293" lon="105.146095"><ele>359.23</ele><time>2026-03-14T23:33:31.000Z</time></trkpt>
        <trkpt lat="28.5122447" lon="105.1461868"><ele>358.22</ele><time>2026-03-14T23:33:41.000Z</time></trkpt>
        <trkpt lat="28.5121728" lon="105.1462712"><ele>357.19</ele><time>2026-03-14T23:33:53.000Z</time></trkpt>
        <trkpt lat="28.5121132" lon="105.1463679"><ele>355.77</ele><time>2026-03-14T23:34:05.000Z</time></trkpt>
        <trkpt lat="28.5120833" lon="105.1464451"><ele>357.06</ele><time>2026-03-14T23:34:13.000Z</time></trkpt>
        <trkpt lat="28.5120815" lon="105.1465464"><ele>359.48</ele><time>2026-03-14T23:34:27.000Z</time></trkpt>
        <trkpt lat="28.5120707" lon="105.1466615"><ele>360.33</ele><time>2026-03-14T23:34:37.000Z</time></trkpt>
        <trkpt lat="28.5120455" lon="105.1467807"><ele>359.79</ele><time>2026-03-14T23:34:47.000Z</time></trkpt>
        <trkpt lat="28.5120108" lon="105.1468983"><ele>359.4</ele><time>2026-03-14T23:34:57.000Z</time></trkpt>
        <trkpt lat="28.511978" lon="105.147002"><ele>358.1</ele><time>2026-03-14T23:35:05.000Z</time></trkpt>
        <trkpt lat="28.5119756" lon="105.1471146"><ele>357.22</ele><time>2026-03-14T23:35:15.000Z</time></trkpt>
        <trkpt lat="28.5119966" lon="105.1472355"><ele>358.41</ele><time>2026-03-14T23:35:27.000Z</time></trkpt>
        <trkpt lat="28.5120426" lon="105.1473389"><ele>360.06</ele><time>2026-03-14T23:35:37.000Z</time></trkpt>
        <trkpt lat="28.5120859" lon="105.1474513"><ele>361.08</ele><time>2026-03-14T23:35:47.000Z</time></trkpt>
        <trkpt lat="28.5120948" lon="105.1475708"><ele>360.57</ele><time>2026-03-14T23:35:57.000Z</time></trkpt>
        <trkpt lat="28.5120807" lon="105.1476859"><ele>360.78</ele><time>2026-03-14T23:36:07.000Z</time></trkpt>
        <trkpt lat="28.5120387" lon="105.1477978"><ele>358.54</ele><time>2026-03-14T23:36:17.000Z</time></trkpt>
        <trkpt lat="28.5119801" lon="105.1478955"><ele>356.54</ele><time>2026-03-14T23:36:27.000Z</time></trkpt>
        <trkpt lat="28.5119158" lon="105.1479816"><ele>354.82</ele><time>2026-03-14T23:36:35.000Z</time></trkpt>
        <trkpt lat="28.5118406" lon="105.1480479"><ele>352.87</ele><time>2026-03-14T23:36:43.000Z</time></trkpt>
        <trkpt lat="28.5117445" lon="105.1480999"><ele>352.55</ele><time>2026-03-14T23:36:53.000Z</time></trkpt>
        <trkpt lat="28.5116565" lon="105.1481489"><ele>352.69</ele><time>2026-03-14T23:37:01.000Z</time></trkpt>
        <trkpt lat="28.511562" lon="105.1481865"><ele>353.53</ele><time>2026-03-14T23:37:11.000Z</time></trkpt>
        <trkpt lat="28.5114607" lon="105.148216"><ele>354.96</ele><time>2026-03-14T23:37:23.000Z</time></trkpt>
        <trkpt lat="28.5113693" lon="105.1482494"><ele>356.22</ele><time>2026-03-14T23:37:31.000Z</time></trkpt>
        <trkpt lat="28.511279" lon="105.1483041"><ele>357.19</ele><time>2026-03-14T23:37:43.000Z</time></trkpt>
        <trkpt lat="28.5112158" lon="105.1483817"><ele>356.34</ele><time>2026-03-14T23:37:55.000Z</time></trkpt>
        <trkpt lat="28.5111697" lon="105.1484764"><ele>354.91</ele><time>2026-03-14T23:38:05.000Z</time></trkpt>
        <trkpt lat="28.5111487" lon="105.1485799"><ele>354.01</ele><time>2026-03-14T23:38:15.000Z</time></trkpt>
        <trkpt lat="28.5111437" lon="105.1486862"><ele>353.51</ele><time>2026-03-14T23:38:25.000Z</time></trkpt>
        <trkpt lat="28.5111755" lon="105.1487866"><ele>354.27</ele><time>2026-03-14T23:38:37.000Z</time></trkpt>
        <trkpt lat="28.5112185" lon="105.1488986"><ele>355.59</ele><time>2026-03-14T23:38:47.000Z</time></trkpt>
        <trkpt lat="28.5112588" lon="105.14901"><ele>355.63</ele><time>2026-03-14T23:38:57.000Z</time></trkpt>
        <trkpt lat="28.511272" lon="105.1491186"><ele>355.43</ele><time>2026-03-14T23:39:05.000Z</time></trkpt>
        <trkpt lat="28.511267" lon="105.1492411"><ele>355.41</ele><time>2026-03-14T23:39:15.000Z</time></trkpt>
        <trkpt lat="28.5112474" lon="105.149365"><ele>354.04</ele><time>2026-03-14T23:39:25.000Z</time></trkpt>
        <trkpt lat="28.5112251" lon="105.1494725"><ele>352.4</ele><time>2026-03-14T23:39:33.000Z</time></trkpt>
        <trkpt lat="28.511193" lon="105.1495901"><ele>350.83</ele><time>2026-03-14T23:39:43.000Z</time></trkpt>
        <trkpt lat="28.5111355" lon="105.1496987"><ele>350.28</ele><time>2026-03-14T23:39:53.000Z</time></trkpt>
        <trkpt lat="28.5110579" lon="105.1497701"><ele>348.71</ele><time>2026-03-14T23:40:01.000Z</time></trkpt>
        <trkpt lat="28.510972" lon="105.1498363"><ele>347.1</ele><time>2026-03-14T23:40:11.000Z</time></trkpt>
        <trkpt lat="28.5109174" lon="105.1499258"><ele>345.86</ele><time>2026-03-14T23:40:21.000Z</time></trkpt>
        <trkpt lat="28.5109005" lon="105.1500368"><ele>344.8</ele><time>2026-03-14T23:40:33.000Z</time></trkpt>
        <trkpt lat="28.5108984" lon="105.1501563"><ele>344.49</ele><time>2026-03-14T23:40:45.000Z</time></trkpt>
        <trkpt lat="28.5109062" lon="105.1502678"><ele>344.65</ele><time>2026-03-14T23:40:57.000Z</time></trkpt>
        <trkpt lat="28.5109255" lon="105.1503736"><ele>345.76</ele><time>2026-03-14T23:41:09.000Z</time></trkpt>
        <trkpt lat="28.5109561" lon="105.1504736"><ele>347.34</ele><time>2026-03-14T23:41:23.000Z</time></trkpt>
        <trkpt lat="28.5109796" lon="105.1505772"><ele>349.19</ele><time>2026-03-14T23:41:35.000Z</time></trkpt>
        <trkpt lat="28.5109754" lon="105.1506921"><ele>350.44</ele><time>2026-03-14T23:41:47.000Z</time></trkpt>
        <trkpt lat="28.5109303" lon="105.1507994"><ele>350.2</ele><time>2026-03-14T23:41:57.000Z</time></trkpt>
        <trkpt lat="28.5108892" lon="105.1509019"><ele>350.12</ele><time>2026-03-14T23:42:07.000Z</time></trkpt>
        <trkpt lat="28.510872" lon="105.1510098"><ele>349.89</ele><time>2026-03-14T23:42:17.000Z</time></trkpt>
        <trkpt lat="28.5108733" lon="105.1511224"><ele>349.21</ele><time>2026-03-14T23:42:27.000Z</time></trkpt>
        <trkpt lat="28.510879" lon="105.1512293"><ele>349.75</ele><time>2026-03-14T23:42:37.000Z</time></trkpt>
        <trkpt lat="28.5108437" lon="105.1513303"><ele>349.3</ele><time>2026-03-14T23:42:47.000Z</time></trkpt>
        <trkpt lat="28.5107737" lon="105.1513963"><ele>349.03</ele><time>2026-03-14T23:42:57.000Z</time></trkpt>
        <trkpt lat="28.5106862" lon="105.1514512"><ele>347.95</ele><time>2026-03-14T23:43:09.000Z</time></trkpt>
        <trkpt lat="28.5105959" lon="105.1514926"><ele>348.29</ele><time>2026-03-14T23:43:19.000Z</time></trkpt>
        <trkpt lat="28.5105105" lon="105.1515396"><ele>348.14</ele><time>2026-03-14T23:43:29.000Z</time></trkpt>
        <trkpt lat="28.5104068" lon="105.1515391"><ele>346.77</ele><time>2026-03-14T23:43:37.000Z</time></trkpt>
        <trkpt lat="28.5103104" lon="105.1515378"><ele>345.23</ele><time>2026-03-14T23:43:47.000Z</time></trkpt>
        <trkpt lat="28.5102115" lon="105.1515003"><ele>344.61</ele><time>2026-03-14T23:43:59.000Z</time></trkpt>
        <trkpt lat="28.5101054" lon="105.1514871"><ele>344.89</ele><time>2026-03-14T23:44:09.000Z</time></trkpt>
        <trkpt lat="28.5099963" lon="105.1514781"><ele>345.89</ele><time>2026-03-14T23:44:21.000Z</time></trkpt>
        <trkpt lat="28.5098927" lon="105.1514852"><ele>346.88</ele><time>2026-03-14T23:44:31.000Z</time></trkpt>
        <trkpt lat="28.5097949" lon="105.1514798"><ele>349.04</ele><time>2026-03-14T23:44:43.000Z</time></trkpt>
        <trkpt lat="28.5097031" lon="105.1514791"><ele>349.8</ele><time>2026-03-14T23:44:53.000Z</time></trkpt>
        <trkpt lat="28.509604" lon="105.1514833"><ele>349.93</ele><time>2026-03-14T23:45:05.000Z</time></trkpt>
        <trkpt lat="28.5095076" lon="105.1514934"><ele>348.9</ele><time>2026-03-14T23:45:15.000Z</time></trkpt>
        <trkpt lat="28.5094044" lon="105.1514949"><ele>347.96</ele><time>2026-03-14T23:45:27.000Z</time></trkpt>
        <trkpt lat="28.5093062" lon="105.1515153"><ele>346.85</ele><time>2026-03-14T23:45:37.000Z</time></trkpt>
        <trkpt lat="28.5092144" lon="105.1515314"><ele>346.57</ele><time>2026-03-14T23:45:47.000Z</time></trkpt>
        <trkpt lat="28.509119" lon="105.1515641"><ele>346.11</ele><time>2026-03-14T23:45:57.000Z</time></trkpt>
        <trkpt lat="28.5090161" lon="105.1516005"><ele>345.95</ele><time>2026-03-14T23:46:07.000Z</time></trkpt>
        <trkpt lat="28.5089211" lon="105.1516361"><ele>346.24</ele><time>2026-03-14T23:46:17.000Z</time></trkpt>
        <trkpt lat="28.5088334" lon="105.1517031"><ele>346.42</ele><time>2026-03-14T23:46:29.000Z</time></trkpt>
        <trkpt lat="28.5087467" lon="105.1517731"><ele>347.05</ele><time>2026-03-14T23:46:41.000Z</time></trkpt>
        <trkpt lat="28.5086461" lon="105.1518235"><ele>347.54</ele><time>2026-03-14T23:46:53.000Z</time></trkpt>
        <trkpt lat="28.5085511" lon="105.1518525"><ele>348.58</ele><time>2026-03-14T23:47:01.000Z</time></trkpt>
        <trkpt lat="28.508454" lon="105.1518338"><ele>350.34</ele><time>2026-03-14T23:47:11.000Z</time></trkpt>
        <trkpt lat="28.5083804" lon="105.1517633"><ele>351.97</ele><time>2026-03-14T23:47:23.000Z</time></trkpt>
        <trkpt lat="28.508329" lon="105.1516642"><ele>354.32</ele><time>2026-03-14T23:47:35.000Z</time></trkpt>
        <trkpt lat="28.5082894" lon="105.1515622"><ele>356.62</ele><time>2026-03-14T23:47:45.000Z</time></trkpt>
        <trkpt lat="28.5082477" lon="105.1514478"><ele>359.41</ele><time>2026-03-14T23:47:57.000Z</time></trkpt>
        <trkpt lat="28.5082047" lon="105.1513423"><ele>362.36</ele><time>2026-03-14T23:48:07.000Z</time></trkpt>
        <trkpt lat="28.5081427" lon="105.1512544"><ele>363.68</ele><time>2026-03-14T23:48:21.000Z</time></trkpt>
        <trkpt lat="28.5080563" lon="105.1512226"><ele>365.36</ele><time>2026-03-14T23:48:31.000Z</time></trkpt>
        <trkpt lat="28.5079586" lon="105.1511873"><ele>366.49</ele><time>2026-03-14T23:48:43.000Z</time></trkpt>
        <trkpt lat="28.5078639" lon="105.1511345"><ele>366.97</ele><time>2026-03-14T23:48:55.000Z</time></trkpt>
        <trkpt lat="28.5077912" lon="105.151065"><ele>368.1</ele><time>2026-03-14T23:49:05.000Z</time></trkpt>
        <trkpt lat="28.5077155" lon="105.1509905"><ele>369.22</ele><time>2026-03-14T23:49:15.000Z</time></trkpt>
        <trkpt lat="28.5076428" lon="105.1509056"><ele>370.13</ele><time>2026-03-14T23:49:25.000Z</time></trkpt>
        <trkpt lat="28.5075662" lon="105.150838"><ele>371.14</ele><time>2026-03-14T23:49:35.000Z</time></trkpt>
        <trkpt lat="28.5074922" lon="105.150767"><ele>373.11</ele><time>2026-03-14T23:49:45.000Z</time></trkpt>
        <trkpt lat="28.5074224" lon="105.1506879"><ele>373.76</ele><time>2026-03-14T23:49:59.000Z</time></trkpt>
        <trkpt lat="28.5073718" lon="105.1506"><ele>376.14</ele><time>2026-03-14T23:50:09.000Z</time></trkpt>
        <trkpt lat="28.5073441" lon="105.1504909"><ele>378.33</ele><time>2026-03-14T23:50:19.000Z</time></trkpt>
        <trkpt lat="28.507373" lon="105.150382"><ele>381.03</ele><time>2026-03-14T23:50:29.000Z</time></trkpt>
        <trkpt lat="28.5073627" lon="105.1502681"><ele>381.03</ele><time>2026-03-14T23:50:39.000Z</time></trkpt>
        <trkpt lat="28.5073436" lon="105.1501592"><ele>381.98</ele><time>2026-03-14T23:50:49.000Z</time></trkpt>
        <trkpt lat="28.5073748" lon="105.1500545"><ele>382.68</ele><time>2026-03-14T23:50:59.000Z</time></trkpt>
        <trkpt lat="28.5074103" lon="105.1499558"><ele>383.64</ele><time>2026-03-14T23:51:07.000Z</time></trkpt>
        <trkpt lat="28.5074322" lon="105.1498411"><ele>384.15</ele><time>2026-03-14T23:51:17.000Z</time></trkpt>
        <trkpt lat="28.5074285" lon="105.1497339"><ele>384.02</ele><time>2026-03-14T23:51:27.000Z</time></trkpt>
        <trkpt lat="28.5074013" lon="105.1496273"><ele>383.9</ele><time>2026-03-14T23:51:39.000Z</time></trkpt>
        <trkpt lat="28.5073399" lon="105.1495494"><ele>382.56</ele><time>2026-03-14T23:51:47.000Z</time></trkpt>
        <trkpt lat="28.5072445" lon="105.1495095"><ele>382.55</ele><time>2026-03-14T23:51:57.000Z</time></trkpt>
        <trkpt lat="28.5071389" lon="105.1495254"><ele>380.83</ele><time>2026-03-14T23:52:07.000Z</time></trkpt>
        <trkpt lat="28.5070494" lon="105.1495989"><ele>379.46</ele><time>2026-03-14T23:52:21.000Z</time></trkpt>
        <trkpt lat="28.5069853" lon="105.1496975"><ele>376.85</ele><time>2026-03-14T23:52:31.000Z</time></trkpt>
        <trkpt lat="28.5068954" lon="105.1497471"><ele>375.51</ele><time>2026-03-14T23:52:39.000Z</time></trkpt>
        <trkpt lat="28.506796" lon="105.1497366"><ele>375.8</ele><time>2026-03-14T23:52:49.000Z</time></trkpt>
        <trkpt lat="28.5067094" lon="105.1496845"><ele>377.12</ele><time>2026-03-14T23:52:57.000Z</time></trkpt>
        <trkpt lat="28.5066331" lon="105.1496103"><ele>378.08</ele><time>2026-03-14T23:53:05.000Z</time></trkpt>
        <trkpt lat="28.5065574" lon="105.1495443"><ele>378.74</ele><time>2026-03-14T23:53:13.000Z</time></trkpt>
        <trkpt lat="28.50646" lon="105.1495191"><ele>378.37</ele><time>2026-03-14T23:53:23.000Z</time></trkpt>
        <trkpt lat="28.5063603" lon="105.1495481"><ele>378.32</ele><time>2026-03-14T23:53:35.000Z</time></trkpt>
        <trkpt lat="28.5062999" lon="105.1496303"><ele>378.84</ele><time>2026-03-14T23:53:45.000Z</time></trkpt>
        <trkpt lat="28.5062823" lon="105.1497442"><ele>379.08</ele><time>2026-03-14T23:53:55.000Z</time></trkpt>
        <trkpt lat="28.5062649" lon="105.1498679"><ele>379.38</ele><time>2026-03-14T23:54:17.000Z</time></trkpt>
        <trkpt lat="28.5062308" lon="105.149978"><ele>378.96</ele><time>2026-03-14T23:54:27.000Z</time></trkpt>
        <trkpt lat="28.5061471" lon="105.1500447"><ele>380.18</ele><time>2026-03-14T23:54:39.000Z</time></trkpt>
        <trkpt lat="28.5060546" lon="105.1500109"><ele>381.59</ele><time>2026-03-14T23:54:55.000Z</time></trkpt>
        <trkpt lat="28.5059774" lon="105.1499362"><ele>383.22</ele><time>2026-03-14T23:55:03.000Z</time></trkpt>
        <trkpt lat="28.5059004" lon="105.1498543"><ele>385.13</ele><time>2026-03-14T23:55:15.000Z</time></trkpt>
        <trkpt lat="28.5058126" lon="105.1498018"><ele>386.94</ele><time>2026-03-14T23:55:25.000Z</time></trkpt>
        <trkpt lat="28.5057195" lon="105.1498055"><ele>388.37</ele><time>2026-03-14T23:55:35.000Z</time></trkpt>
        <trkpt lat="28.5056532" lon="105.1498825"><ele>389.14</ele><time>2026-03-14T23:55:45.000Z</time></trkpt>
        <trkpt lat="28.5055816" lon="105.1499644"><ele>390.08</ele><time>2026-03-14T23:55:55.000Z</time></trkpt>
        <trkpt lat="28.5054914" lon="105.1500297"><ele>390.26</ele><time>2026-03-14T23:56:05.000Z</time></trkpt>
        <trkpt lat="28.5054004" lon="105.1500069"><ele>391.12</ele><time>2026-03-14T23:56:15.000Z</time></trkpt>
        <trkpt lat="28.5053422" lon="105.1499174"><ele>392.81</ele><time>2026-03-14T23:56:25.000Z</time></trkpt>
        <trkpt lat="28.5053076" lon="105.1498095"><ele>394.87</ele><time>2026-03-14T23:56:35.000Z</time></trkpt>
        <trkpt lat="28.5052759" lon="105.1496906"><ele>397.32</ele><time>2026-03-14T23:56:45.000Z</time></trkpt>
        <trkpt lat="28.5052605" lon="105.1495731"><ele>400.14</ele><time>2026-03-14T23:56:53.000Z</time></trkpt>
        <trkpt lat="28.5052483" lon="105.1494575"><ele>401.72</ele><time>2026-03-14T23:57:01.000Z</time></trkpt>
        <trkpt lat="28.5052409" lon="105.1493406"><ele>402.76</ele><time>2026-03-14T23:57:11.000Z</time></trkpt>
        <trkpt lat="28.5052178" lon="105.1492235"><ele>403.33</ele><time>2026-03-14T23:57:23.000Z</time></trkpt>
        <trkpt lat="28.5052095" lon="105.1491061"><ele>404.95</ele><time>2026-03-14T23:57:33.000Z</time></trkpt>
        <trkpt lat="28.5051891" lon="105.1489908"><ele>404.15</ele><time>2026-03-14T23:57:43.000Z</time></trkpt>
        <trkpt lat="28.5051335" lon="105.1488964"><ele>404.14</ele><time>2026-03-14T23:57:53.000Z</time></trkpt>
        <trkpt lat="28.5050518" lon="105.1488392"><ele>405.35</ele><time>2026-03-14T23:58:03.000Z</time></trkpt>
        <trkpt lat="28.5049525" lon="105.1488064"><ele>407.47</ele><time>2026-03-14T23:58:15.000Z</time></trkpt>
        <trkpt lat="28.5048465" lon="105.1487714"><ele>408.74</ele><time>2026-03-14T23:58:27.000Z</time></trkpt>
        <trkpt lat="28.5047466" lon="105.1487405"><ele>409.93</ele><time>2026-03-14T23:58:37.000Z</time></trkpt>
        <trkpt lat="28.5046474" lon="105.1487143"><ele>412.41</ele><time>2026-03-14T23:58:47.000Z</time></trkpt>
        <trkpt lat="28.5045533" lon="105.148706"><ele>414.43</ele><time>2026-03-14T23:58:57.000Z</time></trkpt>
        <trkpt lat="28.5045218" lon="105.1487009"><ele>415.32</ele><time>2026-03-14T23:58:59.000Z</time></trkpt>
        <trkpt lat="28.5044459" lon="105.1487007"><ele>416.56</ele><time>2026-03-14T23:59:27.000Z</time></trkpt>
        <trkpt lat="28.5043618" lon="105.1486541"><ele>418.24</ele><time>2026-03-14T23:59:39.000Z</time></trkpt>
        <trkpt lat="28.5042709" lon="105.1486203"><ele>419.75</ele><time>2026-03-14T23:59:49.000Z</time></trkpt>
        <trkpt lat="28.5041672" lon="105.1485968"><ele>420.62</ele><time>2026-03-14T23:59:59.000Z</time></trkpt>
        <trkpt lat="28.504065" lon="105.1485744"><ele>420.24</ele><time>2026-03-15T00:00:09.000Z</time></trkpt>
        <trkpt lat="28.5039543" lon="105.1485517"><ele>420.28</ele><time>2026-03-15T00:00:19.000Z</time></trkpt>
        <trkpt lat="28.5038529" lon="105.148518"><ele>420.42</ele><time>2026-03-15T00:00:29.000Z</time></trkpt>
        <trkpt lat="28.5037408" lon="105.1484776"><ele>419.85</ele><time>2026-03-15T00:00:49.000Z</time></trkpt>
        <trkpt lat="28.5036897" lon="105.1483832"><ele>421.47</ele><time>2026-03-15T00:00:55.000Z</time></trkpt>
        <trkpt lat="28.5037077" lon="105.1482579"><ele>423.85</ele><time>2026-03-15T00:01:04.000Z</time></trkpt>
        <trkpt lat="28.503755" lon="105.1481382"><ele>426.5</ele><time>2026-03-15T00:01:16.000Z</time></trkpt>
        <trkpt lat="28.5038042" lon="105.1480286"><ele>429.07</ele><time>2026-03-15T00:01:32.000Z</time></trkpt>
        <trkpt lat="28.5038528" lon="105.1479234"><ele>432.05</ele><time>2026-03-15T00:01:44.000Z</time></trkpt>
        <trkpt lat="28.5039203" lon="105.1478315"><ele>434.55</ele><time>2026-03-15T00:01:58.000Z</time></trkpt>
        <trkpt lat="28.5039964" lon="105.1477613"><ele>436.75</ele><time>2026-03-15T00:02:10.000Z</time></trkpt>
        <trkpt lat="28.5040796" lon="105.1477023"><ele>438.21</ele><time>2026-03-15T00:02:24.000Z</time></trkpt>
        <trkpt lat="28.5041652" lon="105.1476364"><ele>441.19</ele><time>2026-03-15T00:02:36.000Z</time></trkpt>
        <trkpt lat="28.5042488" lon="105.1475697"><ele>443.73</ele><time>2026-03-15T00:02:46.000Z</time></trkpt>
        <trkpt lat="28.5043168" lon="105.1474926"><ele>446.34</ele><time>2026-03-15T00:02:56.000Z</time></trkpt>
        <trkpt lat="28.5043665" lon="105.147392"><ele>448.3</ele><time>2026-03-15T00:03:08.000Z</time></trkpt>
        <trkpt lat="28.5043886" lon="105.1472808"><ele>451.73</ele><time>2026-03-15T00:03:20.000Z</time></trkpt>
        <trkpt lat="28.5043563" lon="105.1471775"><ele>454.81</ele><time>2026-03-15T00:03:34.000Z</time></trkpt>
        <trkpt lat="28.504288" lon="105.1470953"><ele>455.15</ele><time>2026-03-15T00:03:44.000Z</time></trkpt>
        <trkpt lat="28.504203" lon="105.1470303"><ele>455.22</ele><time>2026-03-15T00:03:56.000Z</time></trkpt>
        <trkpt lat="28.5041308" lon="105.1469435"><ele>454.05</ele><time>2026-03-15T00:04:08.000Z</time></trkpt>
        <trkpt lat="28.5040979" lon="105.1468346"><ele>453.13</ele><time>2026-03-15T00:04:20.000Z</time></trkpt>
        <trkpt lat="28.5041048" lon="105.146716"><ele>453.72</ele><time>2026-03-15T00:04:34.000Z</time></trkpt>
        <trkpt lat="28.5041182" lon="105.1466061"><ele>454.19</ele><time>2026-03-15T00:04:44.000Z</time></trkpt>
        <trkpt lat="28.504132" lon="105.1464889"><ele>453.9</ele><time>2026-03-15T00:04:54.000Z</time></trkpt>
        <trkpt lat="28.5041564" lon="105.1463655"><ele>454.18</ele><time>2026-03-15T00:05:04.000Z</time></trkpt>
        <trkpt lat="28.5041737" lon="105.1462488"><ele>454.43</ele><time>2026-03-15T00:05:14.000Z</time></trkpt>
        <trkpt lat="28.5041933" lon="105.1461278"><ele>455.37</ele><time>2026-03-15T00:05:24.000Z</time></trkpt>
        <trkpt lat="28.504187" lon="105.1460098"><ele>456.96</ele><time>2026-03-15T00:05:34.000Z</time></trkpt>
        <trkpt lat="28.5041208" lon="105.1459368"><ele>458.53</ele><time>2026-03-15T00:05:44.000Z</time></trkpt>
        <trkpt lat="28.5040223" lon="105.1459175"><ele>458.95</ele><time>2026-03-15T00:05:54.000Z</time></trkpt>
        <trkpt lat="28.5039175" lon="105.1459498"><ele>457</ele><time>2026-03-15T00:06:04.000Z</time></trkpt>
        <trkpt lat="28.5038248" lon="105.1460023"><ele>454.41</ele><time>2026-03-15T00:06:14.000Z</time></trkpt>
        <trkpt lat="28.5037389" lon="105.1460737"><ele>451.72</ele><time>2026-03-15T00:06:26.000Z</time></trkpt>
        <trkpt lat="28.5036673" lon="105.1461542"><ele>448.71</ele><time>2026-03-15T00:06:42.000Z</time></trkpt>
        <trkpt lat="28.5035811" lon="105.1462249"><ele>447.28</ele><time>2026-03-15T00:06:56.000Z</time></trkpt>
        <trkpt lat="28.5034818" lon="105.1462373"><ele>446.56</ele><time>2026-03-15T00:07:06.000Z</time></trkpt>
        <trkpt lat="28.5033829" lon="105.1462442"><ele>445.23</ele><time>2026-03-15T00:07:16.000Z</time></trkpt>
        <trkpt lat="28.5032727" lon="105.1462669"><ele>443.7</ele><time>2026-03-15T00:07:28.000Z</time></trkpt>
        <trkpt lat="28.5031721" lon="105.1462943"><ele>444.17</ele><time>2026-03-15T00:07:38.000Z</time></trkpt>
        <trkpt lat="28.5030775" lon="105.1463487"><ele>444.32</ele><time>2026-03-15T00:07:52.000Z</time></trkpt>
        <trkpt lat="28.5029955" lon="105.1464196"><ele>444.11</ele><time>2026-03-15T00:08:04.000Z</time></trkpt>
        <trkpt lat="28.5029172" lon="105.1464997"><ele>443.17</ele><time>2026-03-15T00:08:14.000Z</time></trkpt>
        <trkpt lat="28.5028471" lon="105.1465721"><ele>442.46</ele><time>2026-03-15T00:08:24.000Z</time></trkpt>
        <trkpt lat="28.5027692" lon="105.1466401"><ele>442</ele><time>2026-03-15T00:08:34.000Z</time></trkpt>
        <trkpt lat="28.5026706" lon="105.1466772"><ele>442.07</ele><time>2026-03-15T00:08:44.000Z</time></trkpt>
        <trkpt lat="28.5025765" lon="105.1466654"><ele>442.45</ele><time>2026-03-15T00:08:52.000Z</time></trkpt>
        <trkpt lat="28.5024971" lon="105.1466075"><ele>443.52</ele><time>2026-03-15T00:09:00.000Z</time></trkpt>
        <trkpt lat="28.5024345" lon="105.1465182"><ele>444.4</ele><time>2026-03-15T00:09:10.000Z</time></trkpt>
        <trkpt lat="28.5023816" lon="105.1464129"><ele>446.53</ele><time>2026-03-15T00:09:20.000Z</time></trkpt>
        <trkpt lat="28.5023254" lon="105.1463131"><ele>448.47</ele><time>2026-03-15T00:09:32.000Z</time></trkpt>
        <trkpt lat="28.5022471" lon="105.1462648"><ele>450.27</ele><time>2026-03-15T00:09:48.000Z</time></trkpt>
        <trkpt lat="28.5021642" lon="105.1462208"><ele>453.43</ele><time>2026-03-15T00:09:56.000Z</time></trkpt>
        <trkpt lat="28.5020615" lon="105.146211"><ele>455.25</ele><time>2026-03-15T00:10:06.000Z</time></trkpt>
        <trkpt lat="28.5020111" lon="105.1462217"><ele>455.31</ele><time>2026-03-15T00:10:12.000Z</time></trkpt>
        <trkpt lat="28.501946" lon="105.146286"><ele>455.11</ele><time>2026-03-15T00:10:42.000Z</time></trkpt>
        <trkpt lat="28.5018795" lon="105.1463762"><ele>454.57</ele><time>2026-03-15T00:10:56.000Z</time></trkpt>
        <trkpt lat="28.5018286" lon="105.1464822"><ele>453.39</ele><time>2026-03-15T00:11:06.000Z</time></trkpt>
        <trkpt lat="28.5017807" lon="105.1465794"><ele>453.88</ele><time>2026-03-15T00:11:14.000Z</time></trkpt>
        <trkpt lat="28.5017161" lon="105.146662"><ele>453.82</ele><time>2026-03-15T00:11:24.000Z</time></trkpt>
        <trkpt lat="28.5016267" lon="105.1467145"><ele>454.44</ele><time>2026-03-15T00:11:36.000Z</time></trkpt>
        <trkpt lat="28.5015144" lon="105.1466875"><ele>454.89</ele><time>2026-03-15T00:11:52.000Z</time></trkpt>
        <trkpt lat="28.5014377" lon="105.1466054"><ele>455.76</ele><time>2026-03-15T00:12:02.000Z</time></trkpt>
        <trkpt lat="28.5013876" lon="105.146492"><ele>456.84</ele><time>2026-03-15T00:12:14.000Z</time></trkpt>
        <trkpt lat="28.5013511" lon="105.1463797"><ele>458.42</ele><time>2026-03-15T00:12:24.000Z</time></trkpt>
        <trkpt lat="28.5013086" lon="105.1462637"><ele>459.82</ele><time>2026-03-15T00:12:36.000Z</time></trkpt>
        <trkpt lat="28.5012648" lon="105.1461611"><ele>461.54</ele><time>2026-03-15T00:12:46.000Z</time></trkpt>
        <trkpt lat="28.5011962" lon="105.1460715"><ele>463.45</ele><time>2026-03-15T00:12:58.000Z</time></trkpt>
        <trkpt lat="28.5011342" lon="105.1459819"><ele>464.29</ele><time>2026-03-15T00:13:08.000Z</time></trkpt>
        <trkpt lat="28.5010836" lon="105.1458757"><ele>464.63</ele><time>2026-03-15T00:13:22.000Z</time></trkpt>
        <trkpt lat="28.5010756" lon="105.1457618"><ele>466.12</ele><time>2026-03-15T00:13:32.000Z</time></trkpt>
        <trkpt lat="28.5011039" lon="105.1456544"><ele>465.98</ele><time>2026-03-15T00:13:40.000Z</time></trkpt>
        <trkpt lat="28.501142" lon="105.145545"><ele>465.51</ele><time>2026-03-15T00:13:52.000Z</time></trkpt>
        <trkpt lat="28.501189" lon="105.1454369"><ele>465.57</ele><time>2026-03-15T00:14:02.000Z</time></trkpt>
        <trkpt lat="28.5012385" lon="105.1453271"><ele>463.5</ele><time>2026-03-15T00:14:14.000Z</time></trkpt>
        <trkpt lat="28.5012789" lon="105.1452179"><ele>463.85</ele><time>2026-03-15T00:14:22.000Z</time></trkpt>
        <trkpt lat="28.5013218" lon="105.1451214"><ele>466.64</ele><time>2026-03-15T00:14:30.000Z</time></trkpt>
        <trkpt lat="28.5013732" lon="105.1450265"><ele>468.57</ele><time>2026-03-15T00:14:40.000Z</time></trkpt>
        <trkpt lat="28.5014166" lon="105.1449205"><ele>470.8</ele><time>2026-03-15T00:14:50.000Z</time></trkpt>
        <trkpt lat="28.5013859" lon="105.1448309"><ele>471.21</ele><time>2026-03-15T00:15:16.000Z</time></trkpt>
        <trkpt lat="28.5012976" lon="105.1447882"><ele>475.65</ele><time>2026-03-15T00:15:28.000Z</time></trkpt>
        <trkpt lat="28.5011973" lon="105.1447724"><ele>479.4</ele><time>2026-03-15T00:15:36.000Z</time></trkpt>
        <trkpt lat="28.5011973" lon="105.1447724"><ele>479.4</ele><time>2026-03-15T00:15:42.000Z</time></trkpt>
      </trkseg>
  </trk>
</gpx>